UA2860 / N27958 7700 Squawk Report (7th of July, 2020)

Aircraft B789 Reg No. N27958 Age 4 years old
Model 787 Jet engines 2 First flight 03-09-15
Registered 18-09-15 Rollout 07-08-15 Delivered 18-09-15
Construction No. 36406 Line No. 0342 Series 9
ADSHEX A2CB13 Airline name United Airlines Owner N/A
Airfield based Houston-George Bush Intercontinental~TX~N First tracked N/A

Flight history for N27958

Route Flight No Date Playback
Indira Gandhi Intl (DEL) - San Francisco Intl (SFO) UA868 2020-08-08 12:27:00
San Francisco Intl (SFO) - Indira Gandhi Intl (DEL) UA867 2020-08-07 21:49:00
George Bush Intercontinental (IAH) - San Francisco Intl (SFO) UA1020 2020-08-05 19:02:00
Guarulhos Gov Andre Franco Montoro (GRU) - George Bush Intercontinental (IAH) UA63 2020-08-05 13:18:00
George Bush Intercontinental (IAH) - Guarulhos Gov Andre Franco Montoro (GRU) UA62 2020-08-04 10:48:00
San Francisco Intl (SFO) - George Bush Intercontinental (IAH) UA1087 2020-08-03 21:47:00
Washington Dulles International (IAD) - San Francisco Intl (SFO) UA1476 2020-08-03 03:50:00
Zurich (ZRH) - Washington Dulles International (IAD) UA53 2020-08-02 19:31:00
Washington Dulles International (IAD) - Zurich (ZRH) UA52 2020-08-02 05:30:00
San Francisco Intl (SFO) - Washington Dulles International (IAD) UA1178 2020-07-31 20:34:00
Washington Dulles International (IAD) - San Francisco Intl (SFO) UA1476 2020-07-31 03:24:00
Zurich (ZRH) - Washington Dulles International (IAD) UA53 2020-07-30 20:13:00
Washington Dulles International (IAD) - Zurich (ZRH) UA52 2020-07-30 11:35:00
Heathrow (LHR) - Washington Dulles International (IAD) UA919 2020-07-29 18:35:00
Washington Dulles International (IAD) - Heathrow (LHR) UA918 2020-07-29 10:51:00
Munich Airport (MUC) - Washington Dulles International (IAD) UA107 2020-07-27 19:05:00
Washington Dulles International (IAD) - Munich Airport (MUC) UA106 2020-07-27 10:11:00
Zurich (ZRH) - Washington Dulles International (IAD) UA53 2020-07-26 19:20:00
Washington Dulles International (IAD) - Zurich (ZRH) UA52 2020-07-26 05:21:00
Heathrow (LHR) - Washington Dulles International (IAD) UA919 2020-07-25 18:31:00
Time Lat Lon Altitude Heading Speed Vertical Rate
2020-07-07 19:52:11 GMT 41.792473 12.242421 0 67 0 0
2020-07-07 19:52:06 GMT 41.792469 12.242410 0 67 0 0
2020-07-07 19:51:48 GMT 41.792480 12.242410 0 67 0 0
2020-07-07 19:51:45 GMT 41.792473 12.242421 0 67 0 0
2020-07-07 19:51:39 GMT 41.792480 12.242410 0 67 0 0
2020-07-07 19:51:35 GMT 41.792469 12.242394 0 67 0 0
2020-07-07 19:51:26 GMT 41.792458 12.242362 0 67 3 0
2020-07-07 19:51:23 GMT 41.792450 12.242328 0 67 3 0
2020-07-07 19:51:18 GMT 41.792427 12.242218 0 67 5 0
2020-07-07 19:51:15 GMT 41.792404 12.242156 0 67 6 0
2020-07-07 19:51:08 GMT 41.792332 12.241883 0 67 8 0
2020-07-07 19:51:05 GMT 41.792294 12.241756 0 70 8 0
2020-07-07 19:50:56 GMT 41.792175 12.241329 0 112 8 0
2020-07-07 19:50:52 GMT 41.792187 12.241188 0 132 8 0
2020-07-07 19:50:48 GMT 41.792267 12.241032 0 151 7 0
2020-07-07 19:50:44 GMT 41.792366 12.240973 0 146 8 0
2020-07-07 19:50:39 GMT 41.792553 12.240876 0 123 8 0
2020-07-07 19:50:35 GMT 41.792667 12.240750 0 98 8 0
2020-07-07 19:50:31 GMT 41.792736 12.240595 0 75 8 0
2020-07-07 19:50:25 GMT 41.792690 12.240283 0 67 9 0
2020-07-07 19:50:15 GMT 41.792526 12.239712 0 36 11 0
2020-07-07 19:50:06 GMT 41.791992 12.239503 0 340 13 0
2020-07-07 19:49:57 GMT 41.791737 12.239616 0 340 14 0
2020-07-07 19:49:54 GMT 41.791557 12.239690 0 340 15 0
2020-07-07 19:49:47 GMT 41.791042 12.239909 0 340 17 0
2020-07-07 19:49:43 GMT 41.790771 12.240015 0 340 17 0
2020-07-07 19:49:34 GMT 41.790096 12.240303 0 340 16 0
2020-07-07 19:49:26 GMT 41.789536 12.240542 0 340 15 0
2020-07-07 19:49:14 GMT 41.788746 12.240861 0 340 15 0
2020-07-07 19:49:05 GMT 41.788246 12.241085 0 340 14 0
2020-07-07 19:48:56 GMT 41.787743 12.241293 0 340 13 0
2020-07-07 19:48:53 GMT 41.787575 12.241360 0 340 12 0
2020-07-07 19:48:45 GMT 41.787186 12.241532 0 340 13 0
2020-07-07 19:48:42 GMT 41.786991 12.241594 0 340 13 0
2020-07-07 19:48:35 GMT 41.786613 12.241756 0 340 13 0
2020-07-07 19:48:32 GMT 41.786453 12.241828 0 340 12 0
2020-07-07 19:48:23 GMT 41.785938 12.242043 0 340 11 0
2020-07-07 19:48:15 GMT 41.785629 12.242172 0 340 10 0
2020-07-07 19:48:11 GMT 41.785446 12.242250 0 340 10 0
2020-07-07 19:48:05 GMT 41.785229 12.242343 0 340 9 0
2020-07-07 19:48:00 GMT 41.785034 12.242426 0 340 8 0
2020-07-07 19:47:55 GMT 41.784863 12.242499 0 340 7 0
2020-07-07 19:47:45 GMT 41.784592 12.242618 0 340 6 0
2020-07-07 19:47:41 GMT 41.784519 12.242650 0 340 5 0
2020-07-07 19:47:33 GMT 41.784393 12.242698 0 340 2 0
2020-07-07 19:47:19 GMT 41.784370 12.242702 0 340 0 0
2020-07-07 19:47:13 GMT 41.784370 12.242698 0 340 0 0
2020-07-07 19:47:03 GMT 41.784359 12.242702 0 340 0 0
2020-07-07 19:46:58 GMT 41.784370 12.242698 0 340 0 0
2020-07-07 19:46:53 GMT 41.784359 12.242702 0 340 0 0
2020-07-07 19:46:43 GMT 41.784370 12.242698 0 340 0 0
2020-07-07 19:46:33 GMT 41.784359 12.242702 0 340 0 0
2020-07-07 19:46:29 GMT 41.784370 12.242698 0 340 0 0
2020-07-07 19:46:13 GMT 41.784359 12.242702 0 340 0 0
2020-07-07 19:45:53 GMT 41.784370 12.242702 0 340 0 0
2020-07-07 19:45:38 GMT 41.784370 12.242698 0 340 0 0
2020-07-07 19:45:28 GMT 41.784370 12.242702 0 340 0 0
2020-07-07 19:45:23 GMT 41.784370 12.242698 0 340 0 0
2020-07-07 19:45:18 GMT 41.784370 12.242702 0 340 0 0
2020-07-07 19:45:09 GMT 41.784370 12.242698 0 340 0 0
2020-07-07 19:44:53 GMT 41.784370 12.242702 0 340 0 0
2020-07-07 19:44:48 GMT 41.784370 12.242698 0 340 0 0
2020-07-07 19:44:43 GMT 41.784370 12.242702 0 340 0 0
2020-07-07 19:44:18 GMT 41.784370 12.242698 0 340 0 0
2020-07-07 19:43:53 GMT 41.784370 12.242702 0 340 0 0
2020-07-07 19:43:44 GMT 41.784370 12.242698 0 340 0 0
2020-07-07 19:43:38 GMT 41.784370 12.242702 0 340 0 0
2020-07-07 19:43:33 GMT 41.784370 12.242698 0 340 0 0
2020-07-07 19:43:23 GMT 41.784370 12.242702 0 340 0 0
2020-07-07 19:43:08 GMT 41.784370 12.242698 0 340 0 0
2020-07-07 19:43:03 GMT 41.784370 12.242702 0 340 0 0
2020-07-07 19:42:58 GMT 41.784370 12.242698 0 340 0 0
2020-07-07 19:42:39 GMT 41.784370 12.242702 0 340 0 0
2020-07-07 19:42:34 GMT 41.784370 12.242698 0 340 0 0
2020-07-07 19:42:09 GMT 41.784370 12.242702 0 340 0 0
2020-07-07 19:42:04 GMT 41.784370 12.242698 0 340 0 0
2020-07-07 19:41:44 GMT 41.784370 12.242702 0 340 0 0
2020-07-07 19:41:29 GMT 41.784370 12.242698 0 340 0 0
2020-07-07 19:41:09 GMT 41.784370 12.242702 0 340 0 0
2020-07-07 19:41:05 GMT 41.784370 12.242698 0 340 0 0
2020-07-07 19:40:39 GMT 41.784370 12.242702 0 340 0 0
2020-07-07 19:40:15 GMT 41.784370 12.242698 0 340 0 0
2020-07-07 19:40:05 GMT 41.784370 12.242702 0 340 0 0
2020-07-07 19:40:01 GMT 41.784370 12.242698 0 340 0 0
2020-07-07 19:39:55 GMT 41.784370 12.242702 0 340 0 0
2020-07-07 19:39:45 GMT 41.784370 12.242698 0 340 0 0
2020-07-07 19:39:34 GMT 41.784370 12.242702 0 340 0 0
2020-07-07 19:39:24 GMT 41.784370 12.242698 0 340 0 0
2020-07-07 19:39:10 GMT 41.784370 12.242702 0 340 0 0
2020-07-07 19:39:00 GMT 41.784370 12.242698 0 340 0 0
2020-07-07 19:38:39 GMT 41.784370 12.242702 0 340 0 0
2020-07-07 19:38:24 GMT 41.784370 12.242698 0 340 0 0
2020-07-07 19:38:21 GMT 41.784370 12.242702 0 340 0 0
2020-07-07 19:38:12 GMT 41.784370 12.242698 0 340 0 0
2020-07-07 19:38:05 GMT 41.784370 12.242702 0 340 0 0
2020-07-07 19:38:00 GMT 41.784359 12.242714 0 340 2 0
2020-07-07 19:37:55 GMT 41.784290 12.242733 0 340 4 0
2020-07-07 19:37:49 GMT 41.784229 12.242762 0 340 0 0
2020-07-07 19:37:39 GMT 41.784206 12.242762 0 343 0 0
2020-07-07 19:37:34 GMT 41.784199 12.242765 0 343 0 0
2020-07-07 19:37:29 GMT 41.784184 12.242778 0 343 0 0
2020-07-07 19:37:21 GMT 41.784172 12.242778 0 343 0 0
2020-07-07 19:37:14 GMT 41.784161 12.242778 0 343 0 0
2020-07-07 19:37:10 GMT 41.784161 12.242794 0 343 0 0
2020-07-07 19:37:04 GMT 41.784138 12.242794 0 343 0 0
2020-07-07 19:37:00 GMT 41.784119 12.242796 0 343 2 0
2020-07-07 19:36:53 GMT 41.784042 12.242826 0 343 4 0
2020-07-07 19:36:49 GMT 41.783962 12.242857 0 343 5 0
2020-07-07 19:36:43 GMT 41.783848 12.242921 0 348 6 0
2020-07-07 19:36:39 GMT 41.783741 12.242969 0 0 6 0
2020-07-07 19:36:31 GMT 41.783485 12.243001 0 39 8 0
2020-07-07 19:36:28 GMT 41.783417 12.242953 0 50 8 0
2020-07-07 19:36:23 GMT 41.783283 12.242765 0 64 9 0
2020-07-07 19:36:20 GMT 41.783203 12.242570 0 70 10 0
2020-07-07 19:36:13 GMT 41.783123 12.242203 0 70 12 0
2020-07-07 19:36:09 GMT 41.783054 12.241899 0 70 13 0
2020-07-07 19:36:03 GMT 41.782951 12.241438 0 70 14 0
2020-07-07 19:35:59 GMT 41.782871 12.241110 0 73 13 0
2020-07-07 19:35:53 GMT 41.782780 12.240689 0 98 12 0
2020-07-07 19:35:49 GMT 41.782787 12.240382 0 126 12 0
2020-07-07 19:35:42 GMT 41.783009 12.240047 0 151 14 0
2020-07-07 19:35:38 GMT 41.783237 12.239893 0 160 14 0
2020-07-07 19:35:32 GMT 41.783684 12.239706 0 160 20 0
2020-07-07 19:35:29 GMT 41.784039 12.239565 0 160 24 0
2020-07-07 19:35:22 GMT 41.784702 12.239285 0 160 27 0
2020-07-07 19:35:18 GMT 41.785252 12.239066 0 160 31 0
2020-07-07 19:35:12 GMT 41.786034 12.238738 0 160 32 0
2020-07-07 19:35:08 GMT 41.786625 12.238473 0 160 35 0
2020-07-07 19:35:02 GMT 41.787628 12.238067 0 160 40 0
2020-07-07 19:34:58 GMT 41.788383 12.237732 0 160 42 0
2020-07-07 19:34:51 GMT 41.789547 12.237253 0 160 43 0
2020-07-07 19:34:48 GMT 41.790287 12.236944 0 160 43 0
2020-07-07 19:34:41 GMT 41.791550 12.236422 0 160 47 0
2020-07-07 19:34:36 GMT 41.792736 12.235895 0 160 54 0
2020-07-07 19:34:31 GMT 41.793888 12.235432 0 160 72 0
2020-07-07 19:34:28 GMT 41.795208 12.234884 0 160 88 0
2020-07-07 19:34:21 GMT 41.797897 12.233776 25 162 117 -64
2020-07-07 19:34:17 GMT 41.800003 12.232839 25 162 125 64
2020-07-07 19:34:10 GMT 41.804169 12.231092 -25 162 162 -64
2020-07-07 19:34:07 GMT 41.806934 12.230019 25 162 175 -64
2020-07-07 19:34:03 GMT 41.809589 12.228869 25 162 182 -64
2020-07-07 19:34:00 GMT 41.811951 12.227846 25 162 185 -320
2020-07-07 19:33:57 GMT 41.814987 12.226570 75 162 188 -960
2020-07-07 19:33:54 GMT 41.816990 12.225739 125 162 189 -960
2020-07-07 19:33:50 GMT 41.820786 12.224163 175 162 189 -960
2020-07-07 19:33:47 GMT 41.825821 12.222040 275 162 190 -1024
2020-07-07 19:33:38 GMT 41.830902 12.219918 375 162 191 -1088
2020-07-07 19:33:34 GMT 41.834473 12.218420 450 162 191 -1024
2020-07-07 19:33:30 GMT 41.837425 12.217180 500 162 192 -1088
2020-07-07 19:33:27 GMT 41.840874 12.215775 575 162 193 -1088
2020-07-07 19:33:23 GMT 41.843353 12.214737 625 162 193 -1088
2020-07-07 19:33:20 GMT 41.845917 12.213676 675 162 195 -1088
2020-07-07 19:33:16 GMT 41.849625 12.212070 750 162 196 -1152
2020-07-07 19:33:13 GMT 41.852230 12.210984 800 162 197 -1216
2020-07-07 19:33:10 GMT 41.855022 12.209835 850 162 197 -1216
2020-07-07 19:33:06 GMT 41.858704 12.208238 900 162 197 -1152
2020-07-07 19:33:02 GMT 41.861618 12.207059 1,000 162 199 -1088
2020-07-07 19:32:59 GMT 41.864090 12.205998 1,025 162 200 -1024
2020-07-07 19:32:56 GMT 41.867432 12.204562 1,100 162 200 -1024
2020-07-07 19:32:50 GMT 41.872559 12.202440 1,200 162 199 -1024
2020-07-07 19:32:45 GMT 41.876404 12.200817 1,250 162 198 -1024
2020-07-07 19:32:39 GMT 41.881603 12.198657 1,350 162 198 -1024
2020-07-07 19:32:35 GMT 41.885468 12.196996 1,400 162 199 -1088
2020-07-07 19:32:31 GMT 41.888821 12.195591 1,475 162 199 -1088
2020-07-07 19:32:28 GMT 41.892242 12.194138 1,550 162 198 -1088
2020-07-07 19:32:25 GMT 41.894455 12.193227 1,575 162 198 -1088
2020-07-07 19:32:19 GMT 41.899715 12.191056 1,725 162 197 -1152
2020-07-07 19:32:15 GMT 41.903393 12.189459 1,775 162 197 -1152
2020-07-07 19:32:12 GMT 41.905998 12.188373 1,825 162 197 -1088
2020-07-07 19:32:05 GMT 41.912018 12.185835 1,925 162 196 -1088
2020-07-07 19:32:02 GMT 41.914764 12.184712 2,000 162 196 -1088
2020-07-07 19:31:56 GMT 41.919800 12.182589 2,100 162 195 -1088
2020-07-07 19:31:52 GMT 41.923416 12.181029 2,150 162 195 -1088
2020-07-07 19:31:48 GMT 41.926064 12.179942 2,225 162 195 -1024
2020-07-07 19:31:45 GMT 41.929459 12.178532 2,275 162 194 -1088
2020-07-07 19:31:41 GMT 41.932388 12.177284 2,325 162 194 -1024
2020-07-07 19:31:37 GMT 41.936398 12.175598 2,375 162 194 -1024
2020-07-07 19:31:34 GMT 41.938568 12.174662 2,400 162 194 -1088
2020-07-07 19:31:31 GMT 41.941238 12.173554 2,500 162 195 -1152
2020-07-07 19:31:27 GMT 41.944359 12.172277 2,550 162 196 -1216
2020-07-07 19:31:24 GMT 41.947289 12.170999 2,625 162 196 -1216
2020-07-07 19:31:21 GMT 41.949757 12.169977 2,675 162 196 -1280
2020-07-07 19:31:18 GMT 41.953388 12.168444 2,750 162 197 -1216
2020-07-07 19:31:14 GMT 41.955811 12.167422 2,800 162 197 -1216
2020-07-07 19:31:11 GMT 41.958893 12.166110 2,875 162 197 -1088
2020-07-07 19:31:07 GMT 41.961906 12.164803 2,925 162 196 -960
2020-07-07 19:31:04 GMT 41.964703 12.163654 2,975 162 194 -832
2020-07-07 19:31:00 GMT 41.967728 12.162427 3,025 162 193 -576
2020-07-07 19:30:57 GMT 41.970894 12.161099 3,050 162 192 -128
2020-07-07 19:30:53 GMT 41.973965 12.159757 3,050 162 192 -64
2020-07-07 19:30:50 GMT 41.976337 12.158799 3,050 162 192 64
2020-07-07 19:30:46 GMT 41.982193 12.156310 3,050 162 192 0
2020-07-07 19:30:43 GMT 41.982193 12.156310 3,050 162 192 0
2020-07-07 19:30:40 GMT 41.984940 12.155186 3,050 162 192 -64
2020-07-07 19:30:37 GMT 41.987503 12.154062 3,050 162 193 -64
2020-07-07 19:30:34 GMT 41.990753 12.152689 3,050 162 194 0
2020-07-07 19:30:30 GMT 41.993752 12.151454 3,050 162 194 -64
2020-07-07 19:30:26 GMT 41.996635 12.150176 3,050 162 194 -64
2020-07-07 19:30:23 GMT 41.999569 12.148899 3,050 162 194 0
2020-07-07 19:30:20 GMT 42.002243 12.147820 3,050 162 194 -64
2020-07-07 19:30:16 GMT 42.005573 12.146408 3,050 162 194 -64
2020-07-07 19:30:13 GMT 42.008507 12.145130 3,050 162 194 0
2020-07-07 19:30:10 GMT 42.011112 12.144108 3,050 162 195 0
2020-07-07 19:30:07 GMT 42.014233 12.142767 3,050 162 195 -64
2020-07-07 19:30:03 GMT 42.017353 12.141489 3,050 162 195 0
2020-07-07 19:30:00 GMT 42.019772 12.140467 3,050 163 195 -64
2020-07-07 19:29:56 GMT 42.022980 12.139206 3,050 163 195 -64
2020-07-07 19:29:53 GMT 42.026009 12.137912 3,050 162 195 -64
2020-07-07 19:29:49 GMT 42.028702 12.136834 3,050 161 195 -64
2020-07-07 19:29:46 GMT 42.031952 12.135336 3,050 160 195 -64
2020-07-07 19:29:43 GMT 42.034622 12.134080 3,050 158 196 0
2020-07-07 19:29:39 GMT 42.037216 12.132652 3,050 156 197 64
2020-07-07 19:29:36 GMT 42.040237 12.130841 3,050 152 196 64
2020-07-07 19:29:33 GMT 42.043121 12.128781 3,050 147 197 0
2020-07-07 19:29:26 GMT 42.050308 12.120604 3,050 131 196 128
2020-07-07 19:29:22 GMT 42.050308 12.120604 3,050 130 197 128
2020-07-07 19:29:19 GMT 42.052078 12.117601 3,050 124 196 64
2020-07-07 19:29:16 GMT 42.053570 12.114215 3,050 114 196 0
2020-07-07 19:29:11 GMT 42.055023 12.109618 3,050 107 195 -64
2020-07-07 19:29:08 GMT 42.055710 12.106372 3,050 104 195 -64
2020-07-07 19:29:05 GMT 42.056454 12.102207 3,050 102 194 -64
2020-07-07 19:29:01 GMT 42.057129 12.097882 3,050 102 194 -128
2020-07-07 19:28:56 GMT 42.058319 12.090710 3,050 102 193 -192
2020-07-07 19:28:51 GMT 42.059155 12.085536 3,075 102 193 -320
2020-07-07 19:28:48 GMT 42.059647 12.082589 3,075 102 193 -512
2020-07-07 19:28:45 GMT 42.060272 12.078701 3,100 102 192 -704
2020-07-07 19:28:42 GMT 42.061020 12.074412 3,150 102 192 -1088
2020-07-07 19:28:38 GMT 42.061661 12.070666 3,200 103 193 -1344
2020-07-07 19:28:35 GMT 42.062366 12.066565 3,275 103 193 -1280
2020-07-07 19:28:31 GMT 42.063171 12.061990 3,325 103 193 -1216
2020-07-07 19:28:28 GMT 42.063763 12.058836 3,400 103 194 -1088
2020-07-07 19:28:25 GMT 42.064453 12.055185 3,450 103 195 -960
2020-07-07 19:28:21 GMT 42.065346 12.050341 3,500 104 197 -768
2020-07-07 19:28:18 GMT 42.066055 12.046446 3,550 103 198 -768
2020-07-07 19:28:14 GMT 42.066788 12.042576 3,575 103 200 -768
2020-07-07 19:28:11 GMT 42.067612 12.037957 3,625 103 201 -768
2020-07-07 19:28:05 GMT 42.068939 12.030591 3,700 103 203 -832
2020-07-07 19:28:00 GMT 42.069855 12.025410 3,750 103 205 -768
2020-07-07 19:27:57 GMT 42.070587 12.021228 3,775 103 205 -768
2020-07-07 19:27:54 GMT 42.071274 12.017482 3,825 103 206 -704
2020-07-07 19:27:50 GMT 42.072098 12.012676 3,850 103 208 -704
2020-07-07 19:27:47 GMT 42.072750 12.009015 3,900 103 209 -704
2020-07-07 19:27:44 GMT 42.073425 12.005123 3,925 103 211 -640
2020-07-07 19:27:41 GMT 42.074425 11.999370 3,975 102 213 -512
2020-07-07 19:27:37 GMT 42.074982 11.995984 3,975 102 214 -448
2020-07-07 19:27:34 GMT 42.075668 11.992201 4,000 103 216 -448
2020-07-07 19:27:30 GMT 42.076630 11.986396 4,025 102 219 -320
2020-07-07 19:27:27 GMT 42.077271 11.982713 4,025 102 221 -192
2020-07-07 19:27:24 GMT 42.078987 11.972479 4,050 102 226 -64
2020-07-07 19:27:20 GMT 42.078987 11.972479 4,050 102 228 -128
2020-07-07 19:27:17 GMT 42.079685 11.968646 4,050 102 231 -192
2020-07-07 19:27:14 GMT 42.080338 11.964686 4,050 102 232 -192
2020-07-07 19:27:09 GMT 42.081390 11.958306 4,075 102 235 -192
2020-07-07 19:27:04 GMT 42.083908 11.943450 4,100 102 236 -64
2020-07-07 19:26:59 GMT 42.083908 11.943450 4,100 102 237 128
2020-07-07 19:26:56 GMT 42.084549 11.939392 4,075 102 240 128
2020-07-07 19:26:53 GMT 42.086334 11.928780 4,050 102 246 64
2020-07-07 19:26:50 GMT 42.086334 11.928780 4,050 102 246 64
2020-07-07 19:26:46 GMT 42.086975 11.924848 4,050 102 249 64
2020-07-07 19:26:43 GMT 42.088947 11.913012 4,050 102 256 -64
2020-07-07 19:26:39 GMT 42.088947 11.913012 4,050 102 256 -64
2020-07-07 19:26:36 GMT 42.089630 11.908805 4,050 102 259 -64
2020-07-07 19:26:33 GMT 42.090343 11.904581 4,050 102 260 -64
2020-07-07 19:26:29 GMT 42.091599 11.897132 4,050 102 260 0
2020-07-07 19:26:26 GMT 42.092285 11.893075 4,050 102 260 -64
2020-07-07 19:26:23 GMT 42.093063 11.888331 4,050 102 261 -64
2020-07-07 19:26:19 GMT 42.094162 11.881651 4,050 102 261 0
2020-07-07 19:26:16 GMT 42.094986 11.876595 4,050 102 261 0
2020-07-07 19:26:12 GMT 42.095791 11.871686 4,050 102 261 0
2020-07-07 19:26:09 GMT 42.096817 11.865362 4,050 102 259 0
2020-07-07 19:26:06 GMT 42.097515 11.860955 4,050 102 259 64
2020-07-07 19:26:03 GMT 42.098213 11.856548 4,050 102 259 0
2020-07-07 19:25:59 GMT 42.099380 11.849442 4,050 102 259 -64
2020-07-07 19:25:55 GMT 42.100113 11.844697 4,050 102 259 64
2020-07-07 19:25:52 GMT 42.100864 11.840132 4,050 102 259 64
2020-07-07 19:25:48 GMT 42.102036 11.832712 4,050 102 259 0
2020-07-07 19:25:45 GMT 42.102730 11.828443 4,050 102 259 -64
2020-07-07 19:25:42 GMT 42.103455 11.823848 4,050 102 260 -64
2020-07-07 19:25:38 GMT 42.104637 11.816371 4,050 101 260 -64
2020-07-07 19:25:32 GMT 42.106064 11.807369 4,050 101 261 -128
2020-07-07 19:25:28 GMT 42.107071 11.801002 4,050 102 261 -192
2020-07-07 19:25:25 GMT 42.107849 11.796195 4,075 102 262 -448
2020-07-07 19:25:22 GMT 42.108673 11.791077 4,100 101 264 -640
2020-07-07 19:25:19 GMT 42.109291 11.787053 4,150 101 265 -1088
2020-07-07 19:25:15 GMT 42.110363 11.780218 4,200 101 264 -1408
2020-07-07 19:25:11 GMT 42.111294 11.774469 4,275 101 263 -1600
2020-07-07 19:25:07 GMT 42.112335 11.767606 4,350 101 261 -1856
2020-07-07 19:25:04 GMT 42.112968 11.763611 4,475 101 260 -2304
2020-07-07 19:25:01 GMT 42.113808 11.758182 4,600 101 261 -2240
2020-07-07 19:24:58 GMT 42.114834 11.751219 4,750 101 261 -2240
2020-07-07 19:24:54 GMT 42.116089 11.742916 4,925 101 262 -2176
2020-07-07 19:24:47 GMT 42.117252 11.735251 5,025 101 263 -2112
2020-07-07 19:24:44 GMT 42.117874 11.731214 5,175 101 264 -2112
2020-07-07 19:24:41 GMT 42.118744 11.725720 5,275 101 264 -2112
2020-07-07 19:24:37 GMT 42.119797 11.718979 5,425 101 265 -2176
2020-07-07 19:24:34 GMT 42.120483 11.714422 5,550 102 266 -2240
2020-07-07 19:24:31 GMT 42.121258 11.709701 5,550 102 266 -2240
2020-07-07 19:24:26 GMT 42.122406 11.702375 5,775 102 268 -2240
2020-07-07 19:24:22 GMT 42.123688 11.694572 6,025 102 269 -2304
2020-07-07 19:24:18 GMT 42.125748 11.681838 6,150 102 269 -2432
2020-07-07 19:24:14 GMT 42.125748 11.681838 6,250 102 269 -2432
2020-07-07 19:24:10 GMT 42.126656 11.676423 6,375 102 269 -2496
2020-07-07 19:24:07 GMT 42.127762 11.669728 6,525 102 269 -2496
2020-07-07 19:24:03 GMT 42.128632 11.664484 6,650 102 268 -2496
2020-07-07 19:24:00 GMT 42.129402 11.659752 6,775 102 268 -2496
2020-07-07 19:23:56 GMT 42.130566 11.652917 6,925 102 268 -2496
2020-07-07 19:23:53 GMT 42.131359 11.648382 7,050 102 268 -2432
2020-07-07 19:23:50 GMT 42.132149 11.643464 7,150 102 268 -2368
2020-07-07 19:23:46 GMT 42.133362 11.636246 7,475 102 270 -2176
2020-07-07 19:23:43 GMT 42.134151 11.631711 7,425 102 270 -2240
2020-07-07 19:23:40 GMT 42.134995 11.626594 7,525 102 270 -2176
2020-07-07 19:23:36 GMT 42.136185 11.619353 7,675 102 272 -2240
2020-07-07 19:23:33 GMT 42.136944 11.614848 7,775 102 272 -2240
2020-07-07 19:23:30 GMT 42.137688 11.610249 7,875 102 273 -2240
2020-07-07 19:23:26 GMT 42.138931 11.602749 8,025 102 274 -2304
2020-07-07 19:23:23 GMT 42.139664 11.598379 8,125 102 275 -2304
2020-07-07 19:23:20 GMT 42.140533 11.593073 8,225 102 275 -2368
2020-07-07 19:23:15 GMT 42.141861 11.585021 8,400 102 276 -2368
2020-07-07 19:23:10 GMT 42.143372 11.575907 8,625 102 276 -2432
2020-07-07 19:23:06 GMT 42.144581 11.568348 8,800 102 277 -2496
2020-07-07 19:23:03 GMT 42.145294 11.564172 8,900 102 277 -2496
2020-07-07 19:23:00 GMT 42.146118 11.559115 9,000 102 277 -2368
2020-07-07 19:22:55 GMT 42.147373 11.551485 9,175 102 278 -2176
2020-07-07 19:22:52 GMT 42.148209 11.546439 9,375 102 279 -2176
2020-07-07 19:22:49 GMT 42.148956 11.541649 9,375 102 279 -2176
2020-07-07 19:22:45 GMT 42.150238 11.534022 9,525 102 281 -1728
2020-07-07 19:22:42 GMT 42.150955 11.529704 9,575 102 284 -1664
2020-07-07 19:22:38 GMT 42.152119 11.522806 9,700 103 284 -1600
2020-07-07 19:22:35 GMT 42.153214 11.516418 9,775 102 285 -1600
2020-07-07 19:22:32 GMT 42.154076 11.511436 9,850 102 285 -1600
2020-07-07 19:22:29 GMT 42.154915 11.506582 9,925 102 285 -1600
2020-07-07 19:22:25 GMT 42.156170 11.498981 10,050 102 285 -1600
2020-07-07 19:22:22 GMT 42.156876 11.494633 10,100 102 286 -1600
2020-07-07 19:22:19 GMT 42.157700 11.489390 10,175 102 286 -1600
2020-07-07 19:22:15 GMT 42.159012 11.481160 10,300 102 287 -1536
2020-07-07 19:22:12 GMT 42.159714 11.476843 10,350 102 287 -1536
2020-07-07 19:22:08 GMT 42.160675 11.470850 10,425 102 288 -1600
2020-07-07 19:22:05 GMT 42.161865 11.463484 10,525 102 288 -1600
2020-07-07 19:22:00 GMT 42.163109 11.455610 10,650 102 289 -1536
2020-07-07 19:21:57 GMT 42.163898 11.450692 10,750 102 289 -1536
2020-07-07 19:21:54 GMT 42.164875 11.444688 10,800 102 289 -1536
2020-07-07 19:21:51 GMT 42.165573 11.440472 10,850 102 290 -1600
2020-07-07 19:21:48 GMT 42.166458 11.435171 10,925 102 290 -1536
2020-07-07 19:21:44 GMT 42.167770 11.427217 11,000 102 290 -1536
2020-07-07 19:21:41 GMT 42.168457 11.422910 11,150 102 292 -1600
2020-07-07 19:21:38 GMT 42.169373 11.417604 11,150 102 292 -1600
2020-07-07 19:21:34 GMT 42.170742 11.409621 11,275 103 292 -1600
2020-07-07 19:21:31 GMT 42.171577 11.404639 11,350 103 292 -1664
2020-07-07 19:21:28 GMT 42.172462 11.399721 11,425 103 293 -1728
2020-07-07 19:21:24 GMT 42.173904 11.391699 11,550 103 293 -1728
2020-07-07 19:21:21 GMT 42.174839 11.386563 11,625 103 294 -1664
2020-07-07 19:21:18 GMT 42.175770 11.381580 11,700 104 294 -1536
2020-07-07 19:21:15 GMT 42.178162 11.368915 11,800 104 296 -1088
2020-07-07 19:21:11 GMT 42.178162 11.368915 11,825 104 298 -832
2020-07-07 19:21:08 GMT 42.179169 11.363546 11,850 104 299 -704
2020-07-07 19:21:04 GMT 42.180908 11.354495 11,925 104 301 -768
2020-07-07 19:21:00 GMT 42.181915 11.349376 11,950 104 302 -832
2020-07-07 19:20:57 GMT 42.183079 11.343384 12,000 104 304 -896
2020-07-07 19:20:53 GMT 42.184341 11.336580 12,025 103 310 -832
2020-07-07 19:20:50 GMT 42.185532 11.330275 12,125 104 306 -960
2020-07-07 19:20:47 GMT 42.186569 11.324924 12,150 104 306 -960
2020-07-07 19:20:43 GMT 42.188850 11.312660 12,250 103 310 -832
2020-07-07 19:20:40 GMT 42.190063 11.306180 12,250 103 310 -832
2020-07-07 19:20:37 GMT 42.190063 11.306180 12,275 103 310 -832
2020-07-07 19:20:33 GMT 42.191437 11.298627 12,325 103 311 -960
2020-07-07 19:20:29 GMT 42.192947 11.290560 12,400 104 312 -1152
2020-07-07 19:20:22 GMT 42.195053 11.279401 12,500 104 312 -1280
2020-07-07 19:20:19 GMT 42.196106 11.273783 12,550 103 313 -1344
2020-07-07 19:20:16 GMT 42.197090 11.268268 12,625 103 313 -1344
2020-07-07 19:20:13 GMT 42.198627 11.259964 12,700 103 313 -1280
2020-07-07 19:20:10 GMT 42.200455 11.249938 12,800 103 313 -1280
2020-07-07 19:20:07 GMT 42.200455 11.249938 12,800 103 313 -1280
2020-07-07 19:20:02 GMT 42.202209 11.240291 12,875 103 314 -1280
2020-07-07 19:19:59 GMT 42.203049 11.235692 12,975 103 314 -1216
2020-07-07 19:19:56 GMT 42.204121 11.230007 13,025 103 314 -1216
2020-07-07 19:19:52 GMT 42.205673 11.221473 13,075 103 315 -1152
2020-07-07 19:19:49 GMT 42.206497 11.216916 13,175 103 315 -1216
2020-07-07 19:19:46 GMT 42.207642 11.210799 13,200 103 316 -1216
2020-07-07 19:19:42 GMT 42.209194 11.202222 13,275 103 316 -1280
2020-07-07 19:19:36 GMT 42.211197 11.191491 13,400 103 317 -1280
2020-07-07 19:19:32 GMT 42.212769 11.182896 13,550 103 317 -1280
2020-07-07 19:19:26 GMT 42.214687 11.172329 13,600 103 317 -1344
2020-07-07 19:19:21 GMT 42.216549 11.161918 13,700 103 317 -1344
2020-07-07 19:19:18 GMT 42.217712 11.155403 13,775 103 317 -1344
2020-07-07 19:19:15 GMT 42.218552 11.150740 13,825 103 317 -1344
2020-07-07 19:19:12 GMT 42.219772 11.144007 13,900 103 317 -1344
2020-07-07 19:19:06 GMT 42.221718 11.133047 14,000 103 318 -1344
2020-07-07 19:19:00 GMT 42.223812 11.121486 14,125 103 318 -1280
2020-07-07 19:18:55 GMT 42.225300 11.113374 14,200 103 319 -1280
2020-07-07 19:18:51 GMT 42.226883 11.104431 14,300 103 320 -1280
2020-07-07 19:18:47 GMT 42.228470 11.095754 14,400 103 320 -1280
2020-07-07 19:18:44 GMT 42.229248 11.091447 14,425 103 320 -1280
2020-07-07 19:18:41 GMT 42.230515 11.084694 14,500 103 321 -1280
2020-07-07 19:18:37 GMT 42.231903 11.077090 14,575 103 321 -1216
2020-07-07 19:18:34 GMT 42.232841 11.071855 14,625 104 321 -1216
2020-07-07 19:18:30 GMT 42.234329 11.063857 14,700 104 322 -1088
2020-07-07 19:18:25 GMT 42.236240 11.053971 14,775 104 323 -1024
2020-07-07 19:18:21 GMT 42.238129 11.044381 14,850 105 326 -896
2020-07-07 19:18:15 GMT 42.240280 11.034643 14,900 106 327 -768
2020-07-07 19:18:11 GMT 42.241928 11.027589 14,950 109 330 -384
2020-07-07 19:18:08 GMT 42.243828 11.020437 14,950 112 334 0
2020-07-07 19:18:05 GMT 42.245544 11.014855 14,950 112 334 0
2020-07-07 19:18:00 GMT 42.248840 11.005305 14,975 115 338 -192
2020-07-07 19:17:57 GMT 42.251633 10.997751 15,000 116 338 -192
2020-07-07 19:17:50 GMT 42.256023 10.986009 15,000 116 333 64
2020-07-07 19:17:44 GMT 42.262917 10.967549 15,000 116 331 0
2020-07-07 19:17:40 GMT 42.262917 10.967549 15,000 116 331 0
2020-07-07 19:17:34 GMT 42.266739 10.957427 15,000 116 331 0
2020-07-07 19:17:29 GMT 42.269943 10.949000 14,975 117 331 0
2020-07-07 19:17:24 GMT 42.273762 10.938870 14,975 117 331 0
2020-07-07 19:17:20 GMT 42.277222 10.929836 15,000 117 331 0
2020-07-07 19:17:14 GMT 42.280743 10.920857 14,975 117 332 -64
2020-07-07 19:17:11 GMT 42.283352 10.914342 15,000 118 332 -64
2020-07-07 19:17:07 GMT 42.286194 10.907239 14,975 119 332 0
2020-07-07 19:17:04 GMT 42.288437 10.901808 14,975 119 332 0
2020-07-07 19:16:59 GMT 42.292194 10.893008 14,975 120 331 0
2020-07-07 19:16:54 GMT 42.296200 10.884194 14,975 122 332 0
2020-07-07 19:16:49 GMT 42.300522 10.875404 15,000 123 332 0
2020-07-07 19:16:46 GMT 42.303741 10.869055 14,975 124 331 0
2020-07-07 19:16:39 GMT 42.309002 10.858389 14,975 120 331 -64
2020-07-07 19:16:33 GMT 42.313190 10.848296 15,000 117 330 -64
2020-07-07 19:16:28 GMT 42.316360 10.839199 15,000 114 330 -64
2020-07-07 19:16:23 GMT 42.319614 10.829198 14,975 113 329 0
2020-07-07 19:16:18 GMT 42.323456 10.817288 14,975 113 329 0
2020-07-07 19:16:13 GMT 42.325653 10.810547 15,000 113 329 -64
2020-07-07 19:16:08 GMT 42.328949 10.800372 15,000 113 329 -64
2020-07-07 19:16:05 GMT 42.330780 10.794692 15,000 113 329 -64
2020-07-07 19:15:58 GMT 42.334808 10.782270 15,000 113 329 0
2020-07-07 19:15:55 GMT 42.336933 10.775672 15,000 113 329 0
2020-07-07 19:15:48 GMT 42.341171 10.762669 15,000 113 329 0
2020-07-07 19:15:45 GMT 42.342705 10.757979 14,975 113 329 0
2020-07-07 19:15:42 GMT 42.344376 10.752869 14,975 113 329 0
2020-07-07 19:15:38 GMT 42.347359 10.743671 15,000 113 329 -64
2020-07-07 19:15:35 GMT 42.349915 10.735952 15,000 113 329 -64
2020-07-07 19:15:29 GMT 42.352753 10.727276 14,975 113 329 -64
2020-07-07 19:15:25 GMT 42.356857 10.714672 14,975 113 329 0
2020-07-07 19:15:22 GMT 42.356857 10.714672 14,975 113 330 0
2020-07-07 19:15:18 GMT 42.360123 10.704679 14,975 113 329 -64
2020-07-07 19:15:12 GMT 42.363098 10.695627 14,975 113 329 0
2020-07-07 19:15:07 GMT 42.366493 10.685290 14,975 113 329 -64
2020-07-07 19:15:02 GMT 42.369370 10.676401 14,975 113 329 -64
2020-07-07 19:14:59 GMT 42.371521 10.669832 15,000 113 329 -64
2020-07-07 19:14:55 GMT 42.375732 10.656801 15,000 113 329 -64
2020-07-07 19:14:51 GMT 42.375732 10.656801 15,000 113 329 -64
2020-07-07 19:14:48 GMT 42.377701 10.650808 15,000 113 329 0
2020-07-07 19:14:44 GMT 42.380505 10.642367 15,000 112 328 0
2020-07-07 19:14:41 GMT 42.381950 10.637768 15,000 111 329 0
2020-07-07 19:14:37 GMT 42.384293 10.628711 15,000 104 328 0
2020-07-07 19:14:31 GMT 42.385986 10.617912 15,000 98 327 -64
2020-07-07 19:14:26 GMT 42.386536 10.607737 15,000 89 325 0
2020-07-07 19:14:23 GMT 42.386276 10.600274 15,000 84 324 0
2020-07-07 19:14:20 GMT 42.385765 10.595036 15,000 78 323 -64
2020-07-07 19:14:17 GMT 42.383579 10.582964 15,000 69 319 0
2020-07-07 19:14:11 GMT 42.381996 10.577343 15,000 66 318 -64
2020-07-07 19:14:06 GMT 42.378754 10.568660 15,000 59 317 -64
2020-07-07 19:14:01 GMT 42.374634 10.560483 15,000 50 314 0
2020-07-07 19:13:56 GMT 42.369644 10.552805 14,975 44 313 0
2020-07-07 19:13:50 GMT 42.363510 10.545751 15,000 33 310 -64
2020-07-07 19:13:46 GMT 42.358162 10.540935 15,000 30 309 0
2020-07-07 19:13:42 GMT 42.353714 10.537824 14,975 14 305 -64
2020-07-07 19:13:35 GMT 42.344242 10.533206 15,000 14 305 -64
2020-07-07 19:13:31 GMT 42.338882 10.531644 15,000 7 303 0
2020-07-07 19:13:26 GMT 42.330322 10.530651 15,000 0 302 0
2020-07-07 19:13:20 GMT 42.323387 10.531098 14,975 354 301 0
2020-07-07 19:13:15 GMT 42.316681 10.532580 14,975 347 299 0
2020-07-07 19:13:08 GMT 42.306931 10.536887 15,000 338 298 -64
2020-07-07 19:13:05 GMT 42.303322 10.539210 15,000 333 297 -64
2020-07-07 19:13:00 GMT 42.297546 10.543816 15,000 321 296 0
2020-07-07 19:12:55 GMT 42.291779 10.549749 15,000 319 296 0
2020-07-07 19:12:48 GMT 42.285633 10.558181 14,975 305 295 64
2020-07-07 19:12:43 GMT 42.281769 10.565398 14,975 305 295 64
2020-07-07 19:12:38 GMT 42.278595 10.573342 14,975 295 296 -64
2020-07-07 19:12:35 GMT 42.276367 10.579898 14,975 294 296 -64
2020-07-07 19:12:32 GMT 42.274738 10.585008 15,000 294 296 0
2020-07-07 19:12:28 GMT 42.273109 10.590054 15,000 294 296 -64
2020-07-07 19:12:25 GMT 42.270737 10.597527 15,000 294 296 0
2020-07-07 19:12:22 GMT 42.269257 10.602119 15,000 294 296 -64
2020-07-07 19:12:19 GMT 42.267757 10.606725 14,975 294 296 0
2020-07-07 19:12:14 GMT 42.265091 10.615040 14,975 294 296 -64
2020-07-07 19:12:09 GMT 42.262310 10.623652 15,000 294 296 0
2020-07-07 19:12:04 GMT 42.259563 10.632147 14,975 294 296 0
2020-07-07 19:11:58 GMT 42.256721 10.640961 14,975 294 296 0
2020-07-07 19:11:53 GMT 42.253830 10.649997 14,975 294 296 -64
2020-07-07 19:11:48 GMT 42.251083 10.658486 14,975 294 296 0
2020-07-07 19:11:45 GMT 42.249275 10.664084 15,000 294 296 -64
2020-07-07 19:11:41 GMT 42.243439 10.681894 14,975 294 298 0
2020-07-07 19:11:34 GMT 42.243439 10.681894 14,975 294 298 -64
2020-07-07 19:11:31 GMT 42.241333 10.688324 14,975 294 298 -64
2020-07-07 19:11:24 GMT 42.236893 10.701932 14,975 294 297 0
2020-07-07 19:11:21 GMT 42.235794 10.705303 15,000 294 297 0
2020-07-07 19:11:18 GMT 42.234425 10.709562 14,975 294 297 0
2020-07-07 19:11:13 GMT 42.231583 10.718224 14,975 294 297 0
2020-07-07 19:11:10 GMT 42.230118 10.722594 14,975 294 297 0
2020-07-07 19:11:07 GMT 42.228512 10.727511 14,975 294 297 0
2020-07-07 19:11:03 GMT 42.225861 10.735623 15,000 294 296 0
2020-07-07 19:11:00 GMT 42.224396 10.740197 14,975 294 296 0
2020-07-07 19:10:57 GMT 42.222610 10.745628 14,975 294 296 -64
2020-07-07 19:10:53 GMT 42.220367 10.752549 14,975 294 296 -64
2020-07-07 19:10:50 GMT 42.218876 10.757340 15,000 294 296 -64
2020-07-07 19:10:47 GMT 42.217525 10.761364 15,000 294 295 -64
2020-07-07 19:10:44 GMT 42.215572 10.767432 15,000 294 295 -64
2020-07-07 19:10:41 GMT 42.213474 10.773883 15,000 294 295 -64
2020-07-07 19:10:37 GMT 42.211941 10.778546 15,000 294 295 64
2020-07-07 19:10:32 GMT 42.209240 10.787424 15,000 289 296 0
2020-07-07 19:10:29 GMT 42.208054 10.792507 14,975 285 295 -64
2020-07-07 19:10:23 GMT 42.206223 10.805179 15,000 276 297 -64
2020-07-07 19:10:19 GMT 42.205887 10.810930 15,000 270 298 -64
2020-07-07 19:10:16 GMT 42.205887 10.815785 15,000 269 298 -64
2020-07-07 19:10:13 GMT 42.206261 10.822811 15,000 263 299 0
2020-07-07 19:10:10 GMT 42.206955 10.828525 15,000 259 300 -64
2020-07-07 19:10:04 GMT 42.209518 10.840568 15,000 249 302 0
2020-07-07 19:10:00 GMT 42.211243 10.846189 15,000 238 305 0
2020-07-07 19:09:57 GMT 42.213272 10.851371 15,000 240 305 -64
2020-07-07 19:09:52 GMT 42.216873 10.858899 15,000 232 308 0
2020-07-07 19:09:49 GMT 42.219635 10.863543 15,000 205 318 -64
2020-07-07 19:09:46 GMT 42.222519 10.867851 15,000 224 311 0
2020-07-07 19:09:42 GMT 42.226883 10.873207 15,000 218 313 0
2020-07-07 19:09:39 GMT 42.230141 10.876465 15,000 215 314 0
2020-07-07 19:09:33 GMT 42.237682 10.882469 15,000 205 318 -64
2020-07-07 19:09:30 GMT 42.242935 10.885579 15,000 197 319 -64
2020-07-07 19:09:25 GMT 42.248611 10.887951 15,000 196 320 0
2020-07-07 19:09:22 GMT 42.254150 10.889511 15,000 187 323 0
2020-07-07 19:09:19 GMT 42.258316 10.890198 15,000 184 323 0
2020-07-07 19:09:13 GMT 42.267288 10.890198 15,000 171 326 -64
2020-07-07 19:09:08 GMT 42.273285 10.889137 15,000 165 327 -64
2020-07-07 19:09:05 GMT 42.277859 10.887707 15,000 163 328 -64
2020-07-07 19:09:01 GMT 42.284794 10.884577 15,000 156 329 0
2020-07-07 19:08:58 GMT 42.287540 10.882916 15,000 151 329 -64
2020-07-07 19:08:55 GMT 42.291592 10.879978 15,000 148 329 -64
2020-07-07 19:08:51 GMT 42.297688 10.874549 15,000 140 330 64
2020-07-07 19:08:47 GMT 42.301460 10.870269 15,000 137 330 64
2020-07-07 19:08:44 GMT 42.304825 10.865791 14,975 133 330 64
2020-07-07 19:08:39 GMT 42.310501 10.856053 14,975 121 331 -64
2020-07-07 19:08:35 GMT 42.312912 10.850532 14,975 117 331 -128
2020-07-07 19:08:32 GMT 42.315239 10.844272 14,975 114 331 -64
2020-07-07 19:08:28 GMT 42.317753 10.836735 15,000 113 330 -64
2020-07-07 19:08:25 GMT 42.319336 10.831817 15,000 113 331 -64
2020-07-07 19:08:22 GMT 42.323685 10.818350 15,000 113 330 0
2020-07-07 19:08:19 GMT 42.323685 10.818350 14,975 113 330 0
2020-07-07 19:08:15 GMT 42.325573 10.812527 14,975 113 330 0
2020-07-07 19:08:11 GMT 42.330185 10.798312 15,000 113 330 -64
2020-07-07 19:08:08 GMT 42.330185 10.798312 14,975 113 330 -64
2020-07-07 19:08:05 GMT 42.331924 10.793006 15,000 113 330 -64
2020-07-07 19:08:01 GMT 42.334789 10.784167 15,000 113 330 -64
2020-07-07 19:07:57 GMT 42.336456 10.779086 15,000 113 329 0
2020-07-07 19:07:54 GMT 42.338287 10.773406 15,000 113 329 -64
2020-07-07 19:07:51 GMT 42.340191 10.767560 15,000 113 329 -64
2020-07-07 19:07:47 GMT 42.343170 10.758490 14,975 113 329 -64
2020-07-07 19:07:44 GMT 42.344753 10.753635 14,975 113 330 0
2020-07-07 19:07:41 GMT 42.346664 10.747750 14,975 113 330 0
2020-07-07 19:07:37 GMT 42.348850 10.741180 14,975 113 330 0
2020-07-07 19:07:34 GMT 42.350647 10.735703 15,000 113 330 -64
2020-07-07 19:07:31 GMT 42.352806 10.729108 15,000 113 330 -64
2020-07-07 19:07:27 GMT 42.355320 10.721570 14,975 113 330 -64
2020-07-07 19:07:24 GMT 42.357010 10.716539 14,975 113 330 -64
2020-07-07 19:07:20 GMT 42.360077 10.707113 15,000 113 330 0
2020-07-07 19:07:17 GMT 42.361652 10.702408 14,975 113 330 0
2020-07-07 19:07:14 GMT 42.363281 10.697490 14,975 113 330 0
2020-07-07 19:07:10 GMT 42.367332 10.685034 14,975 113 329 -64
2020-07-07 19:07:07 GMT 42.367332 10.685034 15,000 113 329 -64
2020-07-07 19:07:04 GMT 42.369705 10.677881 15,000 113 330 -64
2020-07-07 19:06:59 GMT 42.372711 10.668599 14,975 113 330 -64
2020-07-07 19:06:56 GMT 42.374222 10.663892 15,000 113 330 -64
2020-07-07 19:06:53 GMT 42.376373 10.657300 15,000 113 329 -64
2020-07-07 19:06:50 GMT 42.377991 10.652203 15,000 113 329 -64
2020-07-07 19:06:46 GMT 42.380459 10.644666 15,000 113 328 0
2020-07-07 19:06:43 GMT 42.384659 10.629897 15,000 108 327 0
2020-07-07 19:06:39 GMT 42.384659 10.629897 15,000 105 328 0
2020-07-07 19:06:36 GMT 42.386353 10.619972 14,975 96 326 0
2020-07-07 19:06:28 GMT 42.387085 10.609422 15,000 91 325 0
2020-07-07 19:06:23 GMT 42.386837 10.599507 14,975 82 323 -64
2020-07-07 19:06:19 GMT 42.385391 10.588573 15,000 75 322 -64
2020-07-07 19:06:12 GMT 42.382832 10.578109 15,000 66 319 -64
2020-07-07 19:06:09 GMT 42.380970 10.572680 15,000 60 317 -64
2020-07-07 19:06:06 GMT 42.378830 10.567506 15,000 56 316 -64
2020-07-07 19:06:02 GMT 42.375340 10.560672 15,000 50 314 0
2020-07-07 19:05:58 GMT 42.371197 10.554093 15,000 46 314 0
2020-07-07 19:05:52 GMT 42.365189 10.546747 14,975 37 311 -64
2020-07-07 19:05:47 GMT 42.358154 10.540383 15,000 27 308 0
2020-07-07 19:05:36 GMT 42.344101 10.532759 15,000 14 305 -64
2020-07-07 19:05:30 GMT 42.330597 10.530396 15,000 4 302 0
2020-07-07 19:05:26 GMT 42.330597 10.530396 15,000 359 301 -64
2020-07-07 19:05:22 GMT 42.325058 10.530645 15,000 355 300 -64
2020-07-07 19:05:18 GMT 42.318314 10.531992 15,000 346 299 -64
2020-07-07 19:05:07 GMT 42.305042 10.538060 15,000 332 296 -64
2020-07-07 19:05:02 GMT 42.299503 10.542148 15,000 326 295 -64
2020-07-07 19:04:57 GMT 42.287914 10.554987 15,000 316 294 64
2020-07-07 19:04:51 GMT 42.287914 10.554987 15,000 313 295 64
2020-07-07 19:04:47 GMT 42.282047 10.565143 14,975 301 296 -64
2020-07-07 19:04:40 GMT 42.278961 10.572343 14,975 297 296 -64
2020-07-07 19:04:37 GMT 42.274246 10.586513 15,000 294 296 0
2020-07-07 19:04:31 GMT 42.274246 10.586513 15,000 294 296 -64
2020-07-07 19:04:26 GMT 42.268570 10.604179 14,975 294 296 -64
2020-07-07 19:04:21 GMT 42.268570 10.604179 14,975 294 296 0
2020-07-07 19:04:17 GMT 42.265896 10.612474 14,975 294 297 -64
2020-07-07 19:04:11 GMT 42.263214 10.620783 14,975 294 297 -64
2020-07-07 19:04:07 GMT 42.261192 10.627101 14,975 294 297 0
2020-07-07 19:04:04 GMT 42.259098 10.633552 14,975 294 297 -64
2020-07-07 19:03:58 GMT 42.255753 10.643879 14,975 294 297 -64
2020-07-07 19:03:55 GMT 42.254105 10.648998 14,975 294 297 -64
2020-07-07 19:03:48 GMT 42.250626 10.659859 15,000 294 297 -64
2020-07-07 19:03:45 GMT 42.249161 10.664291 14,975 294 297 0
2020-07-07 19:03:40 GMT 42.245831 10.674623 14,975 294 296 0
2020-07-07 19:03:37 GMT 42.244293 10.679414 14,975 294 296 0
2020-07-07 19:03:34 GMT 42.242710 10.684140 14,975 294 296 0
2020-07-07 19:03:30 GMT 42.238987 10.695701 14,975 294 296 0
2020-07-07 19:03:27 GMT 42.238987 10.695701 14,975 294 296 0
2020-07-07 19:03:24 GMT 42.237579 10.699935 14,975 294 296 0
2020-07-07 19:03:19 GMT 42.234470 10.709562 15,000 294 296 0
2020-07-07 19:03:15 GMT 42.231308 10.719223 14,975 294 296 -64
2020-07-07 19:03:09 GMT 42.228882 10.726651 14,975 294 296 -64
2020-07-07 19:03:04 GMT 42.226364 10.734454 14,975 294 296 0
2020-07-07 19:03:00 GMT 42.224075 10.741570 14,975 294 296 0
2020-07-07 19:02:57 GMT 42.221878 10.748374 14,975 294 296 -64
2020-07-07 19:02:54 GMT 42.220779 10.751745 14,975 294 296 -64
2020-07-07 19:02:49 GMT 42.217850 10.760859 14,975 294 295 -64
2020-07-07 19:02:45 GMT 42.215744 10.767288 15,000 295 295 -64
2020-07-07 19:02:41 GMT 42.213757 10.773181 15,000 290 295 0
2020-07-07 19:02:38 GMT 42.211807 10.779024 15,000 287 295 0
2020-07-07 19:02:33 GMT 42.209427 10.786826 15,000 290 295 0
2020-07-07 19:02:27 GMT 42.207230 10.796689 15,000 283 295 0
2020-07-07 19:02:23 GMT 42.206177 10.805803 14,975 275 296 -64
2020-07-07 19:02:19 GMT 42.205887 10.813357 14,975 270 298 -64
2020-07-07 19:02:13 GMT 42.206306 10.822619 15,000 261 298 -64
2020-07-07 19:02:06 GMT 42.210068 10.842320 15,000 247 302 0
2020-07-07 19:01:57 GMT 42.213364 10.851558 15,000 240 305 0
2020-07-07 19:01:52 GMT 42.216969 10.859027 15,000 235 307 0
2020-07-07 19:01:47 GMT 42.221466 10.866290 15,000 227 309 0
2020-07-07 19:01:42 GMT 42.227722 10.874038 15,000 222 311 -64
2020-07-07 19:01:35 GMT 42.235886 10.881209 15,000 207 316 0
2020-07-07 19:01:31 GMT 42.240875 10.884455 15,000 203 318 -64
2020-07-07 19:01:28 GMT 42.245178 10.886557 15,000 192 321 0
2020-07-07 19:01:22 GMT 42.253510 10.889367 15,000 189 321 0
2020-07-07 19:01:18 GMT 42.259472 10.890262 15,000 172 326 -64
2020-07-07 19:01:12 GMT 42.268616 10.890073 15,000 176 325 0
2020-07-07 19:01:07 GMT 42.275757 10.888450 15,000 161 328 -64
2020-07-07 19:01:04 GMT 42.281162 10.886429 15,000 161 328 -64
2020-07-07 19:01:01 GMT 42.285324 10.884330 15,000 156 329 -64
2020-07-07 19:00:57 GMT 42.289993 10.881334 15,000 150 329 -64
2020-07-07 19:00:53 GMT 42.297085 10.875315 15,000 143 330 64
2020-07-07 19:00:48 GMT 42.303268 10.868225 14,975 134 330 64
2020-07-07 19:00:43 GMT 42.307159 10.862420 14,975 125 331 64
2020-07-07 19:00:40 GMT 42.309654 10.857941 14,975 123 330 0
2020-07-07 19:00:37 GMT 42.312401 10.851937 14,975 117 331 -128
2020-07-07 19:00:32 GMT 42.315582 10.843256 15,000 114 331 -64
2020-07-07 19:00:29 GMT 42.317383 10.837757 15,000 113 330 -64
2020-07-07 19:00:26 GMT 42.318878 10.833019 15,000 113 331 -64
2020-07-07 19:00:22 GMT 42.321945 10.823593 15,000 113 330 0
2020-07-07 19:00:17 GMT 42.324829 10.814699 15,000 113 330 0
2020-07-07 19:00:14 GMT 42.327156 10.807481 15,000 113 330 0
2020-07-07 19:00:10 GMT 42.328835 10.802179 14,975 113 330 -64
2020-07-07 19:00:06 GMT 42.331161 10.795025 15,000 113 330 0
2020-07-07 19:00:02 GMT 42.334141 10.785955 15,000 113 330 -64
2020-07-07 18:59:59 GMT 42.335541 10.781583 15,000 113 330 0
2020-07-07 18:59:56 GMT 42.337372 10.775902 15,000 113 330 -64
2020-07-07 18:59:52 GMT 42.340210 10.767226 14,975 113 330 -64
2020-07-07 18:59:49 GMT 42.341537 10.763043 15,000 113 330 -64
2020-07-07 18:59:46 GMT 42.343311 10.757595 15,000 113 330 -64
2020-07-07 18:59:42 GMT 42.346344 10.748312 15,000 113 330 -64
2020-07-07 18:59:39 GMT 42.347809 10.743755 15,000 113 330 -64
2020-07-07 18:59:36 GMT 42.349640 10.738305 15,000 113 330 -64
2020-07-07 18:59:33 GMT 42.351791 10.731707 15,000 113 329 -64
2020-07-07 18:59:30 GMT 42.353832 10.725467 15,000 113 329 -64
2020-07-07 18:59:26 GMT 42.356018 10.718696 15,000 113 329 -64
2020-07-07 18:59:21 GMT 42.359093 10.709243 15,000 113 329 0
2020-07-07 18:59:17 GMT 42.362137 10.699997 14,975 113 329 0
2020-07-07 18:59:13 GMT 42.364700 10.692069 14,975 113 329 0
2020-07-07 18:59:09 GMT 42.366531 10.686451 14,975 113 329 0
2020-07-07 18:59:05 GMT 42.368683 10.679861 14,975 113 329 0
2020-07-07 18:59:02 GMT 42.370636 10.673793 14,975 113 329 -64
2020-07-07 18:58:59 GMT 42.372593 10.667788 15,000 113 329 -64
2020-07-07 18:58:56 GMT 42.374634 10.661545 15,000 113 329 -64
2020-07-07 18:58:51 GMT 42.377666 10.652331 15,000 114 328 -64
2020-07-07 18:58:48 GMT 42.379623 10.646563 15,000 113 328 0
2020-07-07 18:58:45 GMT 42.381157 10.641856 15,000 113 328 0
2020-07-07 18:58:41 GMT 42.383286 10.634828 15,000 100 326 -64
2020-07-07 18:58:38 GMT 42.384933 10.627837 15,000 104 326 -64
2020-07-07 18:58:35 GMT 42.385803 10.623030 15,000 100 326 -64
2020-07-07 18:58:31 GMT 42.386745 10.614390 14,975 94 325 0
2020-07-07 18:58:28 GMT 42.386993 10.608923 15,000 86 324 -64
2020-07-07 18:58:25 GMT 42.386837 10.601807 15,000 85 324 0
2020-07-07 18:58:21 GMT 42.385757 10.591632 15,000 77 322 0
2020-07-07 18:58:14 GMT 42.383331 10.580458 15,000 68 320 0
2020-07-07 18:58:10 GMT 42.380722 10.572468 14,975 64 319 0
2020-07-07 18:58:04 GMT 42.376648 10.563292 14,975 54 317 -64
2020-07-07 18:57:59 GMT 42.372299 10.555864 15,000 46 314 -64
2020-07-07 18:57:54 GMT 42.366539 10.548408 14,975 37 312 -64
2020-07-07 18:57:49 GMT 42.361233 10.543043 15,000 32 311 -64
2020-07-07 18:57:43 GMT 42.353851 10.537512 14,975 25 308 0
2020-07-07 18:57:39 GMT 42.348312 10.534515 15,000 16 305 0
2020-07-07 18:57:29 GMT 42.334652 10.530651 14,975 2 302 -64
2020-07-07 18:57:24 GMT 42.327255 10.530520 15,000 356 300 0
2020-07-07 18:57:20 GMT 42.320343 10.531519 15,000 350 299 0
2020-07-07 18:57:14 GMT 42.313469 10.533653 14,975 342 298 -64
2020-07-07 18:57:08 GMT 42.306023 10.537422 15,000 294 296 0
2020-07-07 18:57:04 GMT 42.300980 10.540945 15,000 328 296 -64
2020-07-07 18:56:59 GMT 42.295303 10.546001 15,000 322 295 0
2020-07-07 18:56:52 GMT 42.288052 10.554732 14,975 313 295 64
2020-07-07 18:56:49 GMT 42.285168 10.559139 14,975 308 295 64
2020-07-07 18:56:42 GMT 42.279907 10.569934 14,975 300 296 -64
2020-07-07 18:56:39 GMT 42.277950 10.575235 14,975 295 296 -64
2020-07-07 18:56:33 GMT 42.275066 10.584050 15,000 294 297 -64
2020-07-07 18:56:28 GMT 42.272366 10.592545 15,000 294 297 0
2020-07-07 18:56:23 GMT 42.269577 10.601245 14,975 294 296 -64
2020-07-07 18:56:19 GMT 42.266830 10.609734 15,000 294 296 0
2020-07-07 18:56:16 GMT 42.265659 10.613240 14,975 294 296 0
2020-07-07 18:56:13 GMT 42.263939 10.618733 15,000 294 296 -64
2020-07-07 18:56:08 GMT 42.261154 10.627337 15,000 294 296 -64
2020-07-07 18:56:02 GMT 42.258179 10.636513 15,000 294 296 -64
2020-07-07 18:55:58 GMT 42.255699 10.644155 15,000 294 296 0
2020-07-07 18:55:53 GMT 42.252823 10.653118 14,975 294 296 0
2020-07-07 18:55:47 GMT 42.249390 10.663667 15,000 294 296 -64
2020-07-07 18:55:42 GMT 42.246994 10.670918 14,975 294 296 -64
2020-07-07 18:55:37 GMT 42.243919 10.680436 15,000 294 296 0
2020-07-07 18:55:32 GMT 42.241562 10.687700 14,975 294 297 -64
2020-07-07 18:55:28 GMT 42.238941 10.695638 15,000 294 297 0
2020-07-07 18:55:22 GMT 42.236023 10.704616 15,000 294 296 0
2020-07-07 18:55:17 GMT 42.233231 10.713106 14,975 294 296 0
2020-07-07 18:55:12 GMT 42.230373 10.721698 15,000 294 296 0
2020-07-07 18:55:07 GMT 42.227303 10.731151 14,975 294 296 0
2020-07-07 18:55:02 GMT 42.224743 10.738944 14,975 294 295 0
2020-07-07 18:54:57 GMT 42.221832 10.747875 14,975 294 296 -64
2020-07-07 18:54:51 GMT 42.218830 10.757212 14,975 294 296 -64
2020-07-07 18:54:47 GMT 42.216549 10.764302 15,000 294 295 -64
2020-07-07 18:54:43 GMT 42.212723 10.775965 15,000 294 295 0
2020-07-07 18:54:36 GMT 42.210545 10.782889 15,000 293 295 64
2020-07-07 18:54:31 GMT 42.208401 10.790810 14,975 285 295 0
2020-07-07 18:54:27 GMT 42.206543 10.801433 14,975 278 296 -64
2020-07-07 18:54:21 GMT 42.205902 10.809860 14,975 274 297 -64
2020-07-07 18:54:16 GMT 42.205982 10.818978 15,000 267 298 -64
2020-07-07 18:54:09 GMT 42.207596 10.832395 14,975 256 301 -64
2020-07-07 18:54:06 GMT 42.208740 10.837825 14,975 252 302 -64
2020-07-07 18:54:00 GMT 42.211430 10.846763 15,000 245 304 -64
2020-07-07 18:53:56 GMT 42.214687 10.854748 15,000 238 305 0
2020-07-07 18:53:51 GMT 42.218765 10.862357 14,975 229 309 0
2020-07-07 18:53:45 GMT 42.224487 10.870472 15,000 222 311 0
2020-07-07 18:53:35 GMT 42.236069 10.881521 15,000 208 316 0
2020-07-07 18:53:30 GMT 42.242897 10.885663 15,000 200 318 0
2020-07-07 18:53:25 GMT 42.250252 10.888665 14,975 191 321 0
2020-07-07 18:53:22 GMT 42.256119 10.890070 15,000 188 322 0
2020-07-07 18:53:19 GMT 42.258362 10.890385 15,000 184 323 -64
2020-07-07 18:53:15 GMT 42.265102 10.890581 14,975 177 325 0
2020-07-07 18:53:12 GMT 42.269619 10.890070 15,000 172 326 0
2020-07-07 18:53:09 GMT 42.273762 10.889240 15,000 168 326 -64
2020-07-07 18:53:05 GMT 42.280380 10.887014 15,000 160 328 -64
2020-07-07 18:53:02 GMT 42.284683 10.884892 15,000 157 328 -64
2020-07-07 18:52:59 GMT 42.288147 10.882788 15,000 153 329 -64
2020-07-07 18:52:56 GMT 42.292988 10.879211 15,000 145 330 0
2020-07-07 18:52:53 GMT 42.296677 10.875903 15,000 141 330 0
2020-07-07 18:52:50 GMT 42.300293 10.872095 15,000 137 330 64
2020-07-07 18:52:45 GMT 42.305836 10.864712 14,975 129 331 64
2020-07-07 18:52:42 GMT 42.307838 10.861582 14,975 125 330 64
2020-07-07 18:52:39 GMT 42.311050 10.855304 14,975 121 331 -64
2020-07-07 18:52:35 GMT 42.314346 10.847376 14,975 116 331 -64
2020-07-07 18:52:32 GMT 42.315704 10.843442 14,975 113 331 -64
2020-07-07 18:52:29 GMT 42.317566 10.837757 15,000 113 331 -64
2020-07-07 18:52:25 GMT 42.320873 10.827537 15,000 113 331 -64
2020-07-07 18:52:19 GMT 42.323959 10.817913 15,000 113 330 -64
2020-07-07 18:52:15 GMT 42.326294 10.810734 15,000 113 330 -64
2020-07-07 18:52:12 GMT 42.328461 10.804096 15,000 113 330 -64
2020-07-07 18:52:09 GMT 42.330093 10.798999 15,000 113 330 0
2020-07-07 18:52:04 GMT 42.333115 10.789724 15,000 113 330 0
2020-07-07 18:52:01 GMT 42.334900 10.784267 14,975 113 330 0
2020-07-07 18:51:58 GMT 42.336731 10.778587 15,000 113 330 0
2020-07-07 18:51:55 GMT 42.338837 10.772157 14,975 113 330 0
2020-07-07 18:51:52 GMT 42.340942 10.765790 15,000 113 331 -64
2020-07-07 18:51:48 GMT 42.342682 10.760484 14,975 113 331 0
2020-07-07 18:51:44 GMT 42.345684 10.751208 15,000 113 331 0
2020-07-07 18:51:41 GMT 42.347546 10.745587 15,000 113 331 -64
2020-07-07 18:51:38 GMT 42.348862 10.741570 14,975 113 331 0
2020-07-07 18:51:35 GMT 42.351177 10.734601 14,975 113 331 0
2020-07-07 18:51:32 GMT 42.355316 10.721970 14,975 113 330 -64
2020-07-07 18:51:28 GMT 42.355316 10.721970 14,975 114 331 -64
2020-07-07 18:51:25 GMT 42.359802 10.708362 14,975 113 331 -64
2020-07-07 18:51:21 GMT 42.359802 10.708362 14,975 113 330 -64
2020-07-07 18:51:18 GMT 42.361607 10.702919 14,975 113 330 -64
2020-07-07 18:51:14 GMT 42.366028 10.689510 15,000 113 331 0
2020-07-07 18:51:11 GMT 42.366028 10.689510 14,975 113 330 0
2020-07-07 18:51:08 GMT 42.367798 10.684012 14,975 113 330 0
2020-07-07 18:51:04 GMT 42.370544 10.675709 14,975 113 330 -64
2020-07-07 18:51:01 GMT 42.371986 10.671174 14,975 113 330 -64
2020-07-07 18:50:58 GMT 42.374081 10.664786 15,000 113 330 -64
2020-07-07 18:50:53 GMT 42.377197 10.655115 15,000 113 329 -64
2020-07-07 18:50:48 GMT 42.380219 10.645690 15,000 113 329 -64
2020-07-07 18:50:42 GMT 42.383301 10.635660 15,000 109 328 0
2020-07-07 18:50:38 GMT 42.385483 10.626463 15,000 102 326 -64
2020-07-07 18:50:33 GMT 42.386902 10.615227 15,000 95 326 0
2020-07-07 18:50:30 GMT 42.387177 10.609984 15,000 90 325 -64
2020-07-07 18:50:27 GMT 42.387177 10.605115 15,000 87 324 -64
2020-07-07 18:50:22 GMT 42.386490 10.595065 15,000 78 322 0
2020-07-07 18:50:17 GMT 42.384888 10.585639 15,000 71 321 0
2020-07-07 18:50:13 GMT 42.382740 10.577535 15,000 66 320 -64
2020-07-07 18:50:10 GMT 42.380600 10.571403 15,000 63 319 -64
2020-07-07 18:50:06 GMT 42.377899 10.565207 15,000 57 317 -64
2020-07-07 18:50:02 GMT 42.374268 10.558500 15,000 50 316 0
2020-07-07 18:49:51 GMT 42.363281 10.544639 15,000 34 311 -64
2020-07-07 18:49:41 GMT 42.350281 10.535264 15,000 20 306 -64
2020-07-07 18:49:32 GMT 42.336319 10.530708 15,000 6 303 -64
2020-07-07 18:49:26 GMT 42.329765 10.530268 15,000 0 302 0
2020-07-07 18:49:22 GMT 42.324326 10.530645 15,000 354 299 -64
2020-07-07 18:49:19 GMT 42.319523 10.531545 15,000 353 299 -64
2020-07-07 18:49:16 GMT 42.315857 10.532643 15,000 344 298 0
2020-07-07 18:49:12 GMT 42.310722 10.534739 15,000 338 297 -64
2020-07-07 18:49:09 GMT 42.306114 10.537230 15,000 338 297 -64
2020-07-07 18:49:04 GMT 42.300995 10.540807 15,000 332 296 -64
2020-07-07 18:49:00 GMT 42.294342 10.546875 15,000 321 295 0
2020-07-07 18:48:56 GMT 42.291595 10.549996 15,000 317 295 64
2020-07-07 18:48:51 GMT 42.286560 10.556738 15,000 309 295 64
2020-07-07 18:48:45 GMT 42.281723 10.565398 14,975 301 295 0
2020-07-07 18:48:40 GMT 42.278595 10.572968 14,975 296 296 -64
2020-07-07 18:48:34 GMT 42.275208 10.583080 14,975 294 296 0
2020-07-07 18:48:31 GMT 42.273010 10.589884 15,000 294 296 0
2020-07-07 18:48:26 GMT 42.268593 10.603659 15,000 294 296 -64
2020-07-07 18:48:23 GMT 42.268593 10.603659 14,975 294 296 -64
2020-07-07 18:48:20 GMT 42.267471 10.607175 15,000 294 296 -64
2020-07-07 18:48:15 GMT 42.264725 10.615727 15,000 294 297 0
2020-07-07 18:48:10 GMT 42.261887 10.624528 14,975 294 297 -64
2020-07-07 18:48:03 GMT 42.258400 10.635213 15,000 294 297 0
2020-07-07 18:47:59 GMT 42.256351 10.641728 15,000 294 297 0
2020-07-07 18:47:54 GMT 42.253605 10.650223 14,975 294 297 0
2020-07-07 18:47:50 GMT 42.250858 10.658718 14,975 294 297 0
2020-07-07 18:47:45 GMT 42.248291 10.666726 14,975 294 297 0
2020-07-07 18:47:39 GMT 42.245270 10.676028 14,975 294 297 0
2020-07-07 18:47:34 GMT 42.242569 10.684329 14,975 294 296 0
2020-07-07 18:47:29 GMT 42.239365 10.694192 15,000 294 296 -64
2020-07-07 18:47:24 GMT 42.236706 10.702536 15,000 294 296 0
2020-07-07 18:47:19 GMT 42.234192 10.710329 14,975 294 296 0
2020-07-07 18:47:13 GMT 42.231117 10.719782 15,000 294 296 -64
2020-07-07 18:47:09 GMT 42.228374 10.728213 15,000 294 295 0
2020-07-07 18:47:05 GMT 42.224350 10.740571 15,000 294 295 0
2020-07-07 18:47:02 GMT 42.224350 10.740571 15,000 294 295 0
2020-07-07 18:46:58 GMT 42.222553 10.746162 15,000 294 295 0
2020-07-07 18:46:51 GMT 42.218739 10.757979 15,000 294 295 0
2020-07-07 18:46:48 GMT 42.217434 10.762003 15,000 294 295 0
2020-07-07 18:46:43 GMT 42.214417 10.771283 15,000 294 295 -64
2020-07-07 18:46:40 GMT 42.212173 10.778227 14,975 294 295 0
2020-07-07 18:46:37 GMT 42.210960 10.781931 14,975 294 295 0
2020-07-07 18:46:33 GMT 42.206131 10.796876 15,000 294 294 -64
2020-07-07 18:46:28 GMT 42.206131 10.796876 15,000 294 294 0
2020-07-07 18:46:23 GMT 42.203476 10.804991 15,000 294 294 -64
2020-07-07 18:46:18 GMT 42.200729 10.813356 15,000 294 294 0
2020-07-07 18:46:13 GMT 42.197975 10.821916 15,000 294 293 0
2020-07-07 18:46:10 GMT 42.194111 10.833669 14,975 294 293 -64
2020-07-07 18:46:06 GMT 42.194111 10.833669 15,000 294 293 0
2020-07-07 18:46:03 GMT 42.190620 10.844400 14,975 294 293 0
2020-07-07 18:45:59 GMT 42.190620 10.844400 14,975 294 293 0
2020-07-07 18:45:56 GMT 42.188896 10.849766 14,975 294 293 0
2020-07-07 18:45:51 GMT 42.185173 10.861135 14,975 294 293 -64
2020-07-07 18:45:48 GMT 42.184101 10.864457 14,975 294 293 -64
2020-07-07 18:45:39 GMT 42.179031 10.880023 15,000 294 293 -64
2020-07-07 18:45:36 GMT 42.177750 10.884080 15,000 294 293 -64
2020-07-07 18:45:33 GMT 42.176048 10.889240 15,000 294 293 -64
2020-07-07 18:45:30 GMT 42.172806 10.899124 15,000 294 293 0
2020-07-07 18:45:27 GMT 42.172806 10.899124 15,000 294 293 0
2020-07-07 18:45:22 GMT 42.169968 10.907863 15,000 294 293 -64
2020-07-07 18:45:18 GMT 42.167908 10.914230 15,000 294 295 -64
2020-07-07 18:45:15 GMT 42.166180 10.919388 15,000 294 294 0
2020-07-07 18:45:10 GMT 42.163433 10.927820 15,000 294 295 0
2020-07-07 18:45:06 GMT 42.157845 10.945066 15,000 294 296 0
2020-07-07 18:45:00 GMT 42.157845 10.945066 14,975 294 298 0
2020-07-07 18:44:55 GMT 42.155228 10.953057 14,975 294 299 0
2020-07-07 18:44:49 GMT 42.151978 10.962982 14,975 294 301 -64
2020-07-07 18:44:45 GMT 42.149734 10.969849 14,975 294 301 0
2020-07-07 18:44:40 GMT 42.146393 10.980148 15,000 294 301 -64
2020-07-07 18:44:35 GMT 42.144241 10.986703 15,000 294 301 0
2020-07-07 18:44:29 GMT 42.140762 10.997377 15,000 294 301 -64
2020-07-07 18:44:25 GMT 42.138519 11.004243 14,975 294 301 0
2020-07-07 18:44:21 GMT 42.136200 11.011303 15,000 294 302 0
2020-07-07 18:44:17 GMT 42.133759 11.018663 14,975 294 302 0
2020-07-07 18:44:14 GMT 42.132381 11.022992 15,000 294 302 -64
2020-07-07 18:44:11 GMT 42.130737 11.027964 15,000 294 302 -64
2020-07-07 18:44:07 GMT 42.128128 11.035891 14,975 294 302 0
2020-07-07 18:44:04 GMT 42.123676 11.049500 15,000 294 302 -64
2020-07-07 18:43:59 GMT 42.123676 11.049500 14,975 294 302 -64
2020-07-07 18:43:54 GMT 42.121208 11.057101 15,000 294 302 -64
2020-07-07 18:43:49 GMT 42.117950 11.067129 14,975 294 302 0
2020-07-07 18:43:44 GMT 42.115585 11.074156 15,000 294 302 0
2020-07-07 18:43:38 GMT 42.111877 11.085580 15,000 294 303 0
2020-07-07 18:43:34 GMT 42.109665 11.092295 14,975 294 303 0
2020-07-07 18:43:30 GMT 42.107525 11.098874 15,000 294 303 0
2020-07-07 18:43:26 GMT 42.105244 11.105773 14,975 294 303 -64
2020-07-07 18:43:23 GMT 42.103592 11.110736 15,000 294 303 -64
2020-07-07 18:43:18 GMT 42.100433 11.120411 14,975 294 303 -64
2020-07-07 18:43:14 GMT 42.098145 11.127278 15,000 294 303 0
2020-07-07 18:43:10 GMT 42.096165 11.133366 15,000 294 303 0
2020-07-07 18:43:06 GMT 42.093613 11.141073 15,000 294 303 -64
2020-07-07 18:43:02 GMT 42.091690 11.146941 15,000 294 303 -64
2020-07-07 18:42:58 GMT 42.089230 11.154381 15,000 294 303 0
2020-07-07 18:42:55 GMT 42.086014 11.164169 15,000 294 303 0
2020-07-07 18:42:48 GMT 42.083363 11.172265 14,975 294 303 0
2020-07-07 18:42:44 GMT 42.081345 11.178277 15,000 294 302 0
2020-07-07 18:42:41 GMT 42.079964 11.182613 15,000 294 303 0
2020-07-07 18:42:38 GMT 42.077637 11.189638 15,000 294 302 0
2020-07-07 18:42:34 GMT 42.074249 11.199937 15,000 294 302 -64
2020-07-07 18:42:31 GMT 42.072098 11.206492 15,000 294 301 -64
2020-07-07 18:42:28 GMT 42.072098 11.206492 15,000 294 301 -64
2020-07-07 18:42:23 GMT 42.069351 11.214731 15,000 294 301 0
2020-07-07 18:42:17 GMT 42.065964 11.225031 15,000 294 301 0
2020-07-07 18:42:13 GMT 42.063671 11.232051 15,000 294 301 0
2020-07-07 18:42:08 GMT 42.060425 11.241823 14,975 294 301 0
2020-07-07 18:42:05 GMT 42.059097 11.245943 15,000 294 301 0
2020-07-07 18:42:02 GMT 42.057899 11.249489 14,975 294 301 0
2020-07-07 18:41:57 GMT 42.054794 11.258926 15,000 294 300 0
2020-07-07 18:41:52 GMT 42.052185 11.266792 14,975 294 300 0
2020-07-07 18:41:49 GMT 42.050262 11.272597 15,000 294 300 0
2020-07-07 18:41:45 GMT 42.046326 11.284520 14,975 294 300 0
2020-07-07 18:41:36 GMT 42.043167 11.294070 14,975 294 300 0
2020-07-07 18:41:32 GMT 42.040627 11.301738 14,975 295 299 0
2020-07-07 18:41:27 GMT 42.037601 11.310936 14,975 295 299 0
2020-07-07 18:41:23 GMT 42.035385 11.317603 14,975 295 299 0
2020-07-07 18:41:20 GMT 42.033691 11.322722 14,975 295 299 0
2020-07-07 18:41:16 GMT 42.031734 11.328693 14,975 295 299 0
2020-07-07 18:41:12 GMT 42.029297 11.336018 14,975 295 299 -64
2020-07-07 18:41:06 GMT 42.026104 11.345683 14,975 295 299 -64
2020-07-07 18:41:01 GMT 42.023438 11.353683 14,975 295 299 0
2020-07-07 18:40:57 GMT 42.020279 11.363234 14,975 295 299 -64
2020-07-07 18:40:51 GMT 42.017670 11.371037 14,975 294 300 -64
2020-07-07 18:40:46 GMT 42.014740 11.379963 14,975 295 302 -64
2020-07-07 18:40:41 GMT 42.012131 11.387828 14,975 294 303 -128
2020-07-07 18:40:36 GMT 42.008739 11.397996 14,975 294 305 -64
2020-07-07 18:40:31 GMT 42.006084 11.406044 14,975 294 307 64
2020-07-07 18:40:26 GMT 42.003059 11.415114 14,975 295 312 0
2020-07-07 18:40:21 GMT 42.000126 11.423993 14,975 294 315 0
2020-07-07 18:40:16 GMT 41.997147 11.432935 14,975 295 320 -64
2020-07-07 18:40:11 GMT 41.994076 11.442069 14,975 295 323 -64
2020-07-07 18:40:05 GMT 41.990707 11.452248 14,975 294 329 -128
2020-07-07 18:40:01 GMT 41.987823 11.460863 14,975 295 331 -192
2020-07-07 18:39:55 GMT 41.984436 11.471100 15,000 295 337 -192
2020-07-07 18:39:52 GMT 41.981552 11.479755 15,000 295 341 -128
2020-07-07 18:39:49 GMT 41.980591 11.482648 15,000 295 346 -128
2020-07-07 18:39:46 GMT 41.977921 11.490613 15,000 295 346 -128
2020-07-07 18:39:40 GMT 41.974548 11.500688 15,025 295 350 -128
2020-07-07 18:39:35 GMT 41.968597 11.518354 15,025 295 359 0
2020-07-07 18:39:30 GMT 41.967728 11.521017 15,025 295 358 0
2020-07-07 18:39:24 GMT 41.960724 11.541887 15,000 295 369 128
2020-07-07 18:39:20 GMT 41.960724 11.541887 15,000 295 370 128
2020-07-07 18:39:16 GMT 41.958344 11.549065 15,000 295 375 320
2020-07-07 18:39:13 GMT 41.953629 11.563110 14,975 295 378 576
2020-07-07 18:39:10 GMT 41.953629 11.563110 14,975 295 378 768
2020-07-07 18:39:04 GMT 41.949142 11.576406 14,875 294 378 1280
2020-07-07 18:39:00 GMT 41.946407 11.584764 14,800 294 377 1728
2020-07-07 18:38:56 GMT 41.943466 11.593510 14,650 295 374 2176
2020-07-07 18:38:53 GMT 41.941635 11.599066 14,550 295 373 2240
2020-07-07 18:38:50 GMT 41.939255 11.606244 14,475 295 373 2048
2020-07-07 18:38:43 GMT 41.934311 11.620976 14,300 295 370 1728
2020-07-07 18:38:39 GMT 41.931931 11.628092 14,200 295 368 2048
2020-07-07 18:38:35 GMT 41.928589 11.638080 14,025 295 366 2432
2020-07-07 18:38:32 GMT 41.926895 11.643073 13,900 295 365 2688
2020-07-07 18:38:29 GMT 41.924850 11.649021 13,825 295 365 2880
2020-07-07 18:38:22 GMT 41.919731 11.664287 13,475 295 365 3136
2020-07-07 18:38:19 GMT 41.917774 11.670099 13,325 295 365 3136
2020-07-07 18:38:13 GMT 41.913940 11.681463 13,075 295 366 3008
2020-07-07 18:38:10 GMT 41.911285 11.689328 12,900 295 365 3008
2020-07-07 18:38:03 GMT 41.907028 11.702187 12,625 294 365 2816
2020-07-07 18:38:00 GMT 41.904228 11.710659 12,425 295 365 2752
2020-07-07 18:37:53 GMT 41.900162 11.722849 12,175 295 364 2752
2020-07-07 18:37:49 GMT 41.897202 11.731674 12,000 295 362 2624
2020-07-07 18:37:43 GMT 41.892883 11.744634 11,725 294 361 2496
2020-07-07 18:37:39 GMT 41.890182 11.752812 11,575 294 359 2432
2020-07-07 18:37:33 GMT 41.886292 11.764610 11,350 294 356 2880
2020-07-07 18:37:29 GMT 41.883362 11.773536 11,150 294 355 3136
2020-07-07 18:37:23 GMT 41.879604 11.785009 10,850 295 355 3456
2020-07-07 18:37:19 GMT 41.876762 11.793504 10,600 295 355 3456
2020-07-07 18:37:11 GMT 41.869720 11.814173 10,050 295 356 3200
2020-07-07 18:37:02 GMT 41.865685 11.826016 9,675 295 354 3136
2020-07-07 18:36:59 GMT 41.862564 11.835214 9,525 295 353 3136
2020-07-07 18:36:51 GMT 41.858189 11.847925 9,150 295 353 3072
2020-07-07 18:36:48 GMT 41.855804 11.854935 9,025 295 353 3008
2020-07-07 18:36:40 GMT 41.850601 11.870153 8,675 295 349 2816
2020-07-07 18:36:37 GMT 41.848663 11.875846 8,550 295 348 2752
2020-07-07 18:36:33 GMT 41.845367 11.885709 8,250 295 346 2880
2020-07-07 18:36:30 GMT 41.844086 11.889579 8,250 295 345 3008
2020-07-07 18:36:27 GMT 41.842083 11.895638 8,100 295 343 3136
2020-07-07 18:36:20 GMT 41.837521 11.909244 7,725 295 341 3392
2020-07-07 18:36:17 GMT 41.835526 11.915235 7,575 295 341 3456
2020-07-07 18:36:09 GMT 41.829712 11.932588 7,050 295 341 3776
2020-07-07 18:36:00 GMT 41.824162 11.948973 6,550 295 341 3520
2020-07-07 18:35:56 GMT 41.821785 11.955872 6,375 295 340 3456
2020-07-07 18:35:50 GMT 41.815704 11.973662 5,825 295 339 3456
2020-07-07 18:35:47 GMT 41.815704 11.973662 5,825 295 339 3456
2020-07-07 18:35:40 GMT 41.810944 11.987395 5,450 295 336 2944
2020-07-07 18:35:37 GMT 41.808937 11.993238 5,300 295 336 2816
2020-07-07 18:35:31 GMT 41.805359 12.003562 5,075 295 332 2368
2020-07-07 18:35:27 GMT 41.802559 12.011570 4,925 296 327 1536
2020-07-07 18:35:19 GMT 41.797714 12.025597 4,775 294 317 1280
2020-07-07 18:35:16 GMT 41.795929 12.031403 4,700 291 313 1216
2020-07-07 18:35:11 GMT 41.792038 12.049567 4,575 284 302 1344
2020-07-07 18:35:07 GMT 41.792038 12.049567 4,525 282 297 1344
2020-07-07 18:34:59 GMT 41.790642 12.061966 4,350 275 287 1664
2020-07-07 18:34:56 GMT 41.790318 12.067268 4,275 274 284 1792
2020-07-07 18:34:49 GMT 41.790115 12.079967 4,025 270 277 2432
2020-07-07 18:34:45 GMT 41.790253 12.087083 3,850 269 273 2688
2020-07-07 18:34:40 GMT 41.790390 12.094137 3,550 269 269 2880
2020-07-07 18:34:36 GMT 41.790573 12.101815 3,450 268 268 2880
2020-07-07 18:34:30 GMT 41.791031 12.118232 3,150 268 262 2368
2020-07-07 18:34:26 GMT 41.791031 12.118232 3,025 268 260 2368
2020-07-07 18:34:18 GMT 41.791397 12.130654 2,725 268 254 2752
2020-07-07 18:34:15 GMT 41.791527 12.135549 2,575 268 253 2880
2020-07-07 18:34:09 GMT 41.791809 12.143763 2,350 268 250 2688
2020-07-07 18:34:06 GMT 41.791992 12.150255 2,175 268 247 2048
2020-07-07 18:33:59 GMT 41.792221 12.159056 2,025 269 239 1088
2020-07-07 18:33:55 GMT 41.792412 12.165634 1,950 269 232 1216
2020-07-07 18:33:49 GMT 41.792587 12.173413 1,850 269 223 1408
2020-07-07 18:33:45 GMT 41.792690 12.179622 1,750 269 218 1088
2020-07-07 18:33:39 GMT 41.792770 12.187146 1,675 270 207 896
2020-07-07 18:33:34 GMT 41.792786 12.193291 1,600 270 198 832
2020-07-07 18:33:29 GMT 41.792923 12.199806 1,500 266 187 1472
2020-07-07 18:33:24 GMT 41.793365 12.205623 1,375 261 182 2048
2020-07-07 18:33:19 GMT 41.794144 12.211429 1,175 258 180 2368
2020-07-07 18:33:14 GMT 41.795067 12.216030 1,025 252 179 2432
2020-07-07 18:33:09 GMT 41.796600 12.221907 800 250 179 2304
2020-07-07 18:33:05 GMT 41.797989 12.227034 625 250 177 2176
2020-07-07 18:32:58 GMT 41.799545 12.232590 450 250 172 1792
2020-07-07 18:32:51 GMT 41.801491 12.239792 225 250 172 1792
2020-07-07 18:32:48 GMT 41.802326 12.242985 150 250 171 1472
2020-07-07 18:32:44 GMT 41.803490 12.247137 75 250 166 320
2020-07-07 18:32:38 GMT 41.804981 12.252502 75 250 149 -64
2020-07-07 18:32:33 GMT 41.806137 12.256747 75 250 132 0
2020-07-07 18:32:28 GMT 41.807121 12.260295 75 250 113 0
2020-07-07 18:32:24 GMT 41.807877 12.263114 75 250 94 -64
2020-07-07 18:32:18 GMT 41.808723 12.266126 0 247 72
2020-07-07 18:32:13 GMT 41.809238 12.267983 0 247 49
2020-07-07 18:32:07 GMT 41.809570 12.269185 0 247 26
2020-07-07 18:32:03 GMT 41.809704 12.269701 0 250 10
2020-07-07 18:31:57 GMT 41.809776 12.269965 0 253 5
2020-07-07 18:31:53 GMT 41.809811 12.270074 0 261 4
2020-07-07 18:31:47 GMT 41.809845 12.270168 0 270 4
2020-07-07 18:31:43 GMT 41.809868 12.270246 0 281 4
2020-07-07 18:31:37 GMT 41.809914 12.270402 0 312 6
2020-07-07 18:31:33 GMT 41.809879 12.270527 0 331 6
2020-07-07 18:31:26 GMT 41.809731 12.270636 0 337 8
2020-07-07 18:31:22 GMT 41.809582 12.270699 0 337 11
2020-07-07 18:31:17 GMT 41.809341 12.270823 0 337 11
2020-07-07 18:31:12 GMT 41.809124 12.270933 0 337 10
2020-07-07 18:31:06 GMT 41.808895 12.271042 0 337 9
2020-07-07 18:31:02 GMT 41.808723 12.271136 0 337 9
2020-07-07 18:30:56 GMT 41.808483 12.271245 0 343 11
2020-07-07 18:30:51 GMT 41.808239 12.271361 0 2 11
2020-07-07 18:30:46 GMT 41.807995 12.271361 0 30 13
2020-07-07 18:30:42 GMT 41.807785 12.271214 0 53 12
2020-07-07 18:30:36 GMT 41.807610 12.270850 0 67 13
2020-07-07 18:30:32 GMT 41.807529 12.270515 0 67 14
2020-07-07 18:30:25 GMT 41.807396 12.270043 0 67 15
2020-07-07 18:30:21 GMT 41.807281 12.269653 0 67 18
2020-07-07 18:30:15 GMT 41.807121 12.269060 0 67 20
2020-07-07 18:30:12 GMT 41.806995 12.268592 0 67 20
2020-07-07 18:30:05 GMT 41.806789 12.267843 0 67 20
2020-07-07 18:30:01 GMT 41.806664 12.267390 0 67 21
2020-07-07 18:29:55 GMT 41.806480 12.266688 0 67 23
2020-07-07 18:29:51 GMT 41.806320 12.266124 0 67 23
2020-07-07 18:29:45 GMT 41.806126 12.265424 0 67 22
2020-07-07 18:29:40 GMT 41.805946 12.264782 0 67 22
2020-07-07 18:29:35 GMT 41.805782 12.264159 0 67 21
2020-07-07 18:29:30 GMT 41.805588 12.263442 0 67 21
2020-07-07 18:29:25 GMT 41.805424 12.262882 0 67 21
2020-07-07 18:29:20 GMT 41.805283 12.262371 0 67 20
2020-07-07 18:29:14 GMT 41.805096 12.261725 0 67 20
2020-07-07 18:29:11 GMT 41.804958 12.261189 0 67 20
2020-07-07 18:29:04 GMT 41.804783 12.260583 0 67 19
2020-07-07 18:28:58 GMT 41.804581 12.259853 0 67 19
2020-07-07 18:28:54 GMT 41.804489 12.259494 0 67 18
2020-07-07 18:28:50 GMT 41.804363 12.259018 0 67 19
2020-07-07 18:28:44 GMT 41.804180 12.258401 0 67 20
2020-07-07 18:28:39 GMT 41.804008 12.257746 0 67 21
2020-07-07 18:28:33 GMT 41.803818 12.257069 0 67 22
2020-07-07 18:28:29 GMT 41.803688 12.256590 0 67 22
2020-07-07 18:28:24 GMT 41.803501 12.255904 0 67 22
2020-07-07 18:28:21 GMT 41.803345 12.255343 0 67 21
2020-07-07 18:28:14 GMT 41.803150 12.254625 0 67 21
2020-07-07 18:28:09 GMT 41.802979 12.254001 0 67 21
2020-07-07 18:28:03 GMT 41.802807 12.253376 0 67 21
2020-07-07 18:27:59 GMT 41.802677 12.252902 0 67 21
2020-07-07 18:27:53 GMT 41.802464 12.252144 0 67 20
2020-07-07 18:27:49 GMT 41.802349 12.251738 0 67 20
2020-07-07 18:27:43 GMT 41.802162 12.251081 0 70 20
2020-07-07 18:27:37 GMT 41.802040 12.250411 0 87 19
2020-07-07 18:27:33 GMT 41.802052 12.249928 0 92 19
2020-07-07 18:27:28 GMT 41.802074 12.249381 0 84 19
2020-07-07 18:27:23 GMT 41.802025 12.248718 0 73 18
2020-07-07 18:27:19 GMT 41.801937 12.248227 0 70 18
2020-07-07 18:27:12 GMT 41.801788 12.247665 0 67 17
2020-07-07 18:27:08 GMT 41.801662 12.247233 0 67 17
2020-07-07 18:27:02 GMT 41.801525 12.246706 0 67 17
2020-07-07 18:26:58 GMT 41.801395 12.246243 0 67 16
2020-07-07 18:26:52 GMT 41.801270 12.245796 0 67 16
2020-07-07 18:26:47 GMT 41.801147 12.245339 0 67 15
2020-07-07 18:26:42 GMT 41.801022 12.244917 0 67 15
2020-07-07 18:26:37 GMT 41.800919 12.244502 0 67 14
2020-07-07 18:26:32 GMT 41.800804 12.244107 0 67 14
2020-07-07 18:26:27 GMT 41.800690 12.243732 0 67 13
2020-07-07 18:26:22 GMT 41.800587 12.243326 0 67 12
2020-07-07 18:26:18 GMT 41.800499 12.243017 0 64 12
2020-07-07 18:26:10 GMT 41.800358 12.242530 0 42 11
2020-07-07 18:26:07 GMT 41.800278 12.242390 0 25 11
2020-07-07 18:26:01 GMT 41.800034 12.242203 0 348 11
2020-07-07 18:25:57 GMT 41.799824 12.242219 0 337 11
2020-07-07 18:25:51 GMT 41.799580 12.242346 0 337 11
2020-07-07 18:25:46 GMT 41.799351 12.242468 0 337 11
2020-07-07 18:25:41 GMT 41.799114 12.242586 0 337 10
2020-07-07 18:25:36 GMT 41.798916 12.242682 0 340 10
2020-07-07 18:25:31 GMT 41.798683 12.242794 0 348 10
2020-07-07 18:25:26 GMT 41.798496 12.242873 0 5 9
2020-07-07 18:25:21 GMT 41.798275 12.242874 0 36 9
2020-07-07 18:25:16 GMT 41.798115 12.242749 0 64 9
2020-07-07 18:25:11 GMT 41.798023 12.242452 0 67 10
2020-07-07 18:25:06 GMT 41.797939 12.242155 0 67 12
2020-07-07 18:25:00 GMT 41.797829 12.241750 0 67 13
2020-07-07 18:24:55 GMT 41.797737 12.241407 0 67 13
2020-07-07 18:24:50 GMT 41.797638 12.241069 0 67 12
2020-07-07 18:24:46 GMT 41.797554 12.240736 0 67 12
2020-07-07 18:24:40 GMT 41.797451 12.240366 0 67 13
2020-07-07 18:24:35 GMT 41.797356 12.240031 0 67 12
2020-07-07 18:24:30 GMT 41.797268 12.239690 0 64 12
2020-07-07 18:24:26 GMT 41.797176 12.239378 0 56 11
2020-07-07 18:24:20 GMT 41.797066 12.239073 0 33 11
2020-07-07 18:24:15 GMT 41.796879 12.238865 0 2 11
2020-07-07 18:24:09 GMT 41.796604 12.238832 0 340 11
2020-07-07 18:24:05 GMT 41.796398 12.238910 0 337 11
2020-07-07 18:24:00 GMT 41.796158 12.239025 0 337 12
2020-07-07 18:23:55 GMT 41.795883 12.239160 0 337 12
2020-07-07 18:23:49 GMT 41.795609 12.239300 0 337 13
2020-07-07 18:23:39 GMT 41.795040 12.239584 0 337 13
2020-07-07 18:23:29 GMT 41.794498 12.239846 0 337 13
2020-07-07 18:23:24 GMT 41.794205 12.239983 0 334 12
2020-07-07 18:23:19 GMT 41.793972 12.240111 0 334 12
2020-07-07 18:23:14 GMT 41.793751 12.240255 0 334 11
2020-07-07 18:23:09 GMT 41.793507 12.240398 0 334 10
2020-07-07 18:23:03 GMT 41.793285 12.240526 0 337 9
2020-07-07 18:22:58 GMT 41.793087 12.240622 0 337 9
2020-07-07 18:22:53 GMT 41.792900 12.240718 0 337 8
2020-07-07 18:22:48 GMT 41.792747 12.240782 0 337 8
2020-07-07 18:22:43 GMT 41.792469 12.240925 0 337 6
2020-07-07 18:22:38 GMT 41.792469 12.240925 0 337 5
2020-07-07 18:22:26 GMT 41.792259 12.241021 0 337 3
2020-07-07 18:22:21 GMT 41.792225 12.241037 0 340 0
2020-07-07 18:22:11 GMT 41.792213 12.241037 0 340 0
2020-07-07 18:21:16 GMT 41.792210 12.241048 0 340 0
2020-07-07 18:21:11 GMT 41.792213 12.241053 0 340 0
2020-07-07 18:21:01 GMT 41.792210 12.241048 0 340 0
2020-07-07 18:20:51 GMT 41.792213 12.241053 0 340 0
2020-07-07 18:20:46 GMT 41.792210 12.241048 0 340 0
2020-07-07 18:20:41 GMT 41.792213 12.241053 0 340 0
2020-07-07 18:20:31 GMT 41.792210 12.241048 0 340 0
2020-07-07 18:20:21 GMT 41.792213 12.241053 0 340 0
2020-07-07 18:20:11 GMT 41.792210 12.241048 0 340 0
2020-07-07 18:20:01 GMT 41.792221 12.241048 0 340 0
2020-07-07 18:19:56 GMT 41.792213 12.241053 0 340 0
2020-07-07 18:19:51 GMT 41.792210 12.241048 0 340 0
2020-07-07 18:19:46 GMT 41.792213 12.241053 0 340 0
2020-07-07 18:19:34 GMT 41.792213 12.241053 0 340 0
2020-07-07 18:19:30 GMT 41.792213 12.241053 0 340 0
2020-07-07 18:19:25 GMT 41.792210 12.241048 0 340 0
2020-07-07 18:19:20 GMT 41.792198 12.241064 0 340 2
2020-07-07 18:19:15 GMT 41.792156 12.241085 0 340 2
2020-07-07 18:19:12 GMT 41.792141 12.241079 0 340 3
2020-07-07 18:19:09 GMT 41.792110 12.241101 0 343 3
2020-07-07 18:19:04 GMT 41.792061 12.241142 0 343 3
2020-07-07 18:18:59 GMT 41.792015 12.241157 0 345 2
2020-07-07 18:18:54 GMT 41.791981 12.241165 0 345 1
2020-07-07 18:18:44 GMT 41.791969 12.241165 0 345 1
2020-07-07 18:18:39 GMT 41.792004 12.241173 0 351 2
2020-07-07 18:18:34 GMT 41.792038 12.241188 0 357 2
2020-07-07 18:18:29 GMT 41.792061 12.241245 0 5 3
2020-07-07 18:18:24 GMT 41.792095 12.241309 0 19 3
2020-07-07 18:18:19 GMT 41.792130 12.241360 0 28 2
2020-07-07 18:18:14 GMT 41.792152 12.241407 0 33 2
2020-07-07 18:18:09 GMT 41.792175 12.241454 0 36 2
2020-07-07 18:18:03 GMT 41.792187 12.241501 0 42 3
2020-07-07 18:17:58 GMT 41.792213 12.241564 0 47 3
2020-07-07 18:17:53 GMT 41.792236 12.241612 0 50 3
2020-07-07 18:17:49 GMT 41.792267 12.241688 0 53 2
2020-07-07 18:17:43 GMT 41.792282 12.241740 0 53 2
2020-07-07 18:17:37 GMT 41.792305 12.241804 0 56 2
2020-07-07 18:17:33 GMT 41.792324 12.241859 0 59 3
2020-07-07 18:17:27 GMT 41.792355 12.241947 0 61 4
2020-07-07 18:17:22 GMT 41.792377 12.242043 0 64 3
2020-07-07 18:17:18 GMT 41.792400 12.242107 0 64 2
2020-07-07 18:17:13 GMT 41.792412 12.242155 0 64 2
2020-07-07 18:17:07 GMT 41.792416 12.242203 0 67 2
2020-07-07 18:17:03 GMT 41.792427 12.242234 0 67 2
2020-07-07 18:16:45 GMT 41.792473 12.242406 0 67 0
We lost coverage of the aircraft here for a total of 90 minutes
2020-07-07 16:46:39 GMT 41.792473 12.242406 0 67 0
2020-07-07 16:46:33 GMT 41.792469 12.242394 0 67 0
2020-07-07 16:46:23 GMT 41.792473 12.242406 0 67 0
2020-07-07 16:46:08 GMT 41.792469 12.242394 0 67 0
2020-07-07 16:45:53 GMT 41.792473 12.242406 0 67 0
2020-07-07 16:45:48 GMT 41.792469 12.242394 0 67 0
2020-07-07 16:45:42 GMT 41.792473 12.242406 0 67 0
2020-07-07 16:45:33 GMT 41.792469 12.242394 0 67 0
2020-07-07 16:45:28 GMT 41.792473 12.242406 0 67 0
2020-07-07 16:45:23 GMT 41.792469 12.242394 0 67 0
2020-07-07 16:44:59 GMT 41.792473 12.242406 0 67 0
2020-07-07 16:44:48 GMT 41.792469 12.242394 0 67 0
2020-07-07 16:44:38 GMT 41.792473 12.242406 0 67 0
2020-07-07 16:44:33 GMT 41.792469 12.242394 0 67 0
2020-07-07 16:44:28 GMT 41.792473 12.242406 0 67 0
2020-07-07 16:44:18 GMT 41.792461 12.242406 0 67 0
2020-07-07 16:44:08 GMT 41.792469 12.242410 0 67 0
2020-07-07 16:43:33 GMT 41.792461 12.242406 0 67 0
2020-07-07 16:43:23 GMT 41.792469 12.242410 0 67 0
2020-07-07 16:43:13 GMT 41.792473 12.242406 0 67 0
2020-07-07 16:43:08 GMT 41.792469 12.242410 0 67 0
2020-07-07 16:43:04 GMT 41.792473 12.242406 0 67 0
2020-07-07 16:42:43 GMT 41.792469 12.242410 0 67 0
2020-07-07 16:42:29 GMT 41.792473 12.242406 0 67 0
2020-07-07 16:42:19 GMT 41.792469 12.242410 0 67 0
2020-07-07 16:42:00 GMT 41.792473 12.242406 0 67 0
2020-07-07 16:41:54 GMT 41.792469 12.242410 0 67 0
2020-07-07 16:41:44 GMT 41.792473 12.242406 0 67 0
2020-07-07 16:41:24 GMT 41.792469 12.242410 0 67 0
2020-07-07 16:40:24 GMT 41.792473 12.242406 0 67 0
2020-07-07 16:40:14 GMT 41.792461 12.242406 0 67 0
2020-07-07 16:40:04 GMT 41.792469 12.242410 0 67 0
2020-07-07 16:39:39 GMT 41.792461 12.242406 0 67 0
2020-07-07 16:39:14 GMT 41.792469 12.242410 0 67 0
2020-07-07 16:38:59 GMT 41.792461 12.242406 0 67 0
2020-07-07 16:38:49 GMT 41.792469 12.242410 0 67 0
2020-07-07 16:38:44 GMT 41.792461 12.242406 0 67 0
2020-07-07 16:38:34 GMT 41.792461 12.242406 0 67 0
2020-07-07 16:38:20 GMT 41.792469 12.242410 0 67 0
2020-07-07 16:37:59 GMT 41.792469 12.242394 0 67 0
2020-07-07 16:37:49 GMT 41.792461 12.242390 0 67 0
2020-07-07 16:37:41 GMT 41.792469 12.242394 0 67 0

Making use of Plane Finder data

You are free to use the raw flight data, aircraft information and images provided in this report for your own purposes provided the data is correctly attributed to Plane Finder. We ask that you please credit Plane Finder and link to planefinder.net in close proximity to the content.

Optionally one of the following logos (no smaller then 150x24px) can be used and must link to planefinder.net

Embedding the Plane Finder map

You are welcome to embed the Plane Finder playback map on your website to offer visitors a more interactive experience. We suggest using the following HTML code:

<iframe src="//planefinder.net/data/report/UA2860-N27958-7700-squawk-2020-07-07/map" width="800" height="600" seamless="seamless"></iframe>

Where our data comes from

Plane Finder has a global network of data feeds and antenna radars that receive data broadcast directly from aircraft. The primary technologies used are ADS-B and MLAT. We also show feeds from the FAA and a FLARM glider feed.

Click here to find out more about the Plane Finder network.

How we collect our data